<?xml version='1.0' encoding='UTF-8'?><gpx version="1.1" creator="JPX - https://github.com/jenetics/jpx" xmlns="http://www.topografix.com/GPX/1/1"><trk><trkseg><trkpt lat="40.6341444" lon="-3.3815227"><ele>676.9999999999999</ele><time>2026-03-28T18:08:02.32Z</time></trkpt><trkpt lat="40.6340955" lon="-3.3815874"><ele>677.0</ele><time>2026-03-28T18:08:03.32Z</time></trkpt><trkpt lat="40.6340361" lon="-3.3816461"><ele>677.0</ele><time>2026-03-28T18:08:04.32Z</time></trkpt><trkpt lat="40.6339714" lon="-3.3817008"><ele>677.0</ele><time>2026-03-28T18:08:05.32Z</time></trkpt><trkpt lat="40.6339049" lon="-3.3817571"><ele>677.0</ele><time>2026-03-28T18:08:06.32Z</time></trkpt><trkpt lat="40.6338385" lon="-3.3818102"><ele>676.9999999999999</ele><time>2026-03-28T18:08:07.32Z</time></trkpt><trkpt lat="40.633781" lon="-3.3818578"><ele>677.0</ele><time>2026-03-28T18:08:08.32Z</time></trkpt><trkpt lat="40.6337243" lon="-3.3819075"><ele>676.6666666666666</ele><time>2026-03-28T18:08:09.32Z</time></trkpt><trkpt lat="40.6336243" lon="-3.3820036"><ele>676.3333333333333</ele><time>2026-03-28T18:08:11.32Z</time></trkpt><trkpt lat="40.6335719" lon="-3.3820607"><ele>676.0</ele><time>2026-03-28T18:08:12.32Z</time></trkpt><trkpt lat="40.6335134" lon="-3.3821301"><ele>675.6666666666666</ele><time>2026-03-28T18:08:13.32Z</time></trkpt><trkpt lat="40.6334544" lon="-3.382206"><ele>675.3333333333334</ele><time>2026-03-28T18:08:14.32Z</time></trkpt><trkpt lat="40.6333931" lon="-3.3822904"><ele>675.0</ele><time>2026-03-28T18:08:15.32Z</time></trkpt><trkpt lat="40.6333332" lon="-3.3823733"><ele>674.8333333333334</ele><time>2026-03-28T18:08:16.319Z</time></trkpt><trkpt lat="40.6332776" lon="-3.3824517"><ele>674.6666666666666</ele><time>2026-03-28T18:08:17.32Z</time></trkpt><trkpt lat="40.6332226" lon="-3.3825339"><ele>674.5</ele><time>2026-03-28T18:08:18.32Z</time></trkpt><trkpt lat="40.6331674" lon="-3.3826188"><ele>674.3333333333333</ele><time>2026-03-28T18:08:19.32Z</time></trkpt><trkpt lat="40.6331099" lon="-3.3827052"><ele>674.1666666666666</ele><time>2026-03-28T18:08:20.32Z</time></trkpt><trkpt lat="40.6330626" lon="-3.3827821"><ele>674.0</ele><time>2026-03-28T18:08:21.32Z</time></trkpt><trkpt lat="40.6330134" lon="-3.3828567"><ele>674.0</ele><time>2026-03-28T18:08:22.32Z</time></trkpt><trkpt lat="40.6329631" lon="-3.3829274"><ele>674.0</ele><time>2026-03-28T18:08:23.319Z</time></trkpt><trkpt lat="40.6329161" lon="-3.3829942"><ele>674.0</ele><time>2026-03-28T18:08:24.319Z</time></trkpt><trkpt lat="40.6328425" lon="-3.3831003"><ele>674.0</ele><time>2026-03-28T18:08:26.32Z</time></trkpt><trkpt lat="40.632797" lon="-3.3831868"><ele>674.0</ele><time>2026-03-28T18:08:28.319Z</time></trkpt><trkpt lat="40.6327779" lon="-3.3832893"><ele>674.0</ele><time>2026-03-28T18:08:30.32Z</time></trkpt><trkpt lat="40.6328029" lon="-3.383378"><ele>674.25</ele><time>2026-03-28T18:08:32.319Z</time></trkpt><trkpt lat="40.6328555" lon="-3.383458"><ele>674.5</ele><time>2026-03-28T18:08:34.32Z</time></trkpt><trkpt lat="40.6329766" lon="-3.3835849"><ele>674.75</ele><time>2026-03-28T18:08:36.32Z</time></trkpt><trkpt lat="40.6330616" lon="-3.3836775"><ele>675.0</ele><time>2026-03-28T18:08:37.32Z</time></trkpt><trkpt lat="40.6331504" lon="-3.3837728"><ele>676.0</ele><time>2026-03-28T18:08:38.32Z</time></trkpt><trkpt lat="40.6332309" lon="-3.3838658"><ele>677.0</ele><time>2026-03-28T18:08:39.319Z</time></trkpt><trkpt lat="40.6332973" lon="-3.3839428"><ele>678.0</ele><time>2026-03-28T18:08:40.32Z</time></trkpt><trkpt lat="40.6333552" lon="-3.3840141"><ele>679.0</ele><time>2026-03-28T18:08:41.32Z</time></trkpt><trkpt lat="40.6334081" lon="-3.384072"><ele>680.0</ele><time>2026-03-28T18:08:42.319Z</time></trkpt><trkpt lat="40.6335077" lon="-3.3841368"><ele>680.0</ele><time>2026-03-28T18:08:44.319Z</time></trkpt><trkpt lat="40.6336355" lon="-3.3841615"><ele>680.0</ele><time>2026-03-28T18:08:46.319Z</time></trkpt><trkpt lat="40.6337137" lon="-3.3841851"><ele>680.0</ele><time>2026-03-28T18:08:47.319Z</time></trkpt><trkpt lat="40.6337832" lon="-3.3842039"><ele>680.0</ele><time>2026-03-28T18:08:48.32Z</time></trkpt><trkpt lat="40.6338993" lon="-3.3842268"><ele>680.0</ele><time>2026-03-28T18:08:50.32Z</time></trkpt><trkpt lat="40.634002" lon="-3.3842414"><ele>680.0</ele><time>2026-03-28T18:08:52.319Z</time></trkpt><trkpt lat="40.6340895" lon="-3.3843035"><ele>680.0</ele><time>2026-03-28T18:08:54.32Z</time></trkpt><trkpt lat="40.6341441" lon="-3.384365"><ele>680.0</ele><time>2026-03-28T18:08:55.32Z</time></trkpt><trkpt lat="40.6341907" lon="-3.3844309"><ele>680.0</ele><time>2026-03-28T18:08:56.32Z</time></trkpt><trkpt lat="40.6342572" lon="-3.3845621"><ele>680.0</ele><time>2026-03-28T18:08:58.32Z</time></trkpt><trkpt lat="40.6342742" lon="-3.3846517"><ele>680.0</ele><time>2026-03-28T18:08:59.32Z</time></trkpt><trkpt lat="40.6342912" lon="-3.384742"><ele>680.8333333333333</ele><time>2026-03-28T18:09:00.319Z</time></trkpt><trkpt lat="40.6343145" lon="-3.3848258"><ele>681.6666666666666</ele><time>2026-03-28T18:09:01.32Z</time></trkpt><trkpt lat="40.6343475" lon="-3.3849141"><ele>682.5</ele><time>2026-03-28T18:09:02.32Z</time></trkpt><trkpt lat="40.6343873" lon="-3.3850195"><ele>683.3333333333334</ele><time>2026-03-28T18:09:03.319Z</time></trkpt><trkpt lat="40.6344298" lon="-3.3851221"><ele>684.1666666666667</ele><time>2026-03-28T18:09:04.319Z</time></trkpt><trkpt lat="40.6344778" lon="-3.3852158"><ele>685.0</ele><time>2026-03-28T18:09:05.32Z</time></trkpt><trkpt lat="40.634527" lon="-3.3853109"><ele>685.3333333333334</ele><time>2026-03-28T18:09:06.319Z</time></trkpt><trkpt lat="40.634575" lon="-3.3853981"><ele>685.6666666666667</ele><time>2026-03-28T18:09:07.32Z</time></trkpt><trkpt lat="40.6346242" lon="-3.3854796"><ele>686.0</ele><time>2026-03-28T18:09:08.319Z</time></trkpt><trkpt lat="40.6346789" lon="-3.3855569"><ele>686.3333333333334</ele><time>2026-03-28T18:09:09.32Z</time></trkpt><trkpt lat="40.6347345" lon="-3.3856406"><ele>686.6666666666666</ele><time>2026-03-28T18:09:10.319Z</time></trkpt><trkpt lat="40.6347883" lon="-3.3857333"><ele>687.0</ele><time>2026-03-28T18:09:11.319Z</time></trkpt><trkpt lat="40.6348388" lon="-3.3858299"><ele>687.2</ele><time>2026-03-28T18:09:12.32Z</time></trkpt><trkpt lat="40.6348878" lon="-3.3859348"><ele>687.4000000000001</ele><time>2026-03-28T18:09:13.32Z</time></trkpt><trkpt lat="40.6349246" lon="-3.3860442"><ele>687.5999999999999</ele><time>2026-03-28T18:09:14.32Z</time></trkpt><trkpt lat="40.6349628" lon="-3.3861627"><ele>687.8</ele><time>2026-03-28T18:09:15.32Z</time></trkpt><trkpt lat="40.6349994" lon="-3.3862785"><ele>688.0</ele><time>2026-03-28T18:09:16.319Z</time></trkpt><trkpt lat="40.6350212" lon="-3.3863714"><ele>688.2</ele><time>2026-03-28T18:09:17.32Z</time></trkpt><trkpt lat="40.6350671" lon="-3.3864716"><ele>688.4</ele><time>2026-03-28T18:09:19.32Z</time></trkpt><trkpt lat="40.6351337" lon="-3.3864976"><ele>688.6</ele><time>2026-03-28T18:09:21.32Z</time></trkpt><trkpt lat="40.6352513" lon="-3.3864581"><ele>688.8000000000001</ele><time>2026-03-28T18:09:23.319Z</time></trkpt><trkpt lat="40.6353481" lon="-3.3864171"><ele>689.0</ele><time>2026-03-28T18:09:24.319Z</time></trkpt><trkpt lat="40.635451" lon="-3.3863758"><ele>689.0</ele><time>2026-03-28T18:09:25.32Z</time></trkpt><trkpt lat="40.6355605" lon="-3.3863374"><ele>689.0</ele><time>2026-03-28T18:09:26.32Z</time></trkpt><trkpt lat="40.6356575" lon="-3.3863005"><ele>689.0</ele><time>2026-03-28T18:09:27.32Z</time></trkpt><trkpt lat="40.6357495" lon="-3.3862687"><ele>689.0</ele><time>2026-03-28T18:09:28.32Z</time></trkpt><trkpt lat="40.6358489" lon="-3.3862505"><ele>689.0</ele><time>2026-03-28T18:09:29.32Z</time></trkpt><trkpt lat="40.6359629" lon="-3.3862343"><ele>689.0</ele><time>2026-03-28T18:09:30.319Z</time></trkpt><trkpt lat="40.6360844" lon="-3.3862277"><ele>689.0</ele><time>2026-03-28T18:09:31.32Z</time></trkpt><trkpt lat="40.6361976" lon="-3.3862216"><ele>689.0</ele><time>2026-03-28T18:09:32.32Z</time></trkpt><trkpt lat="40.6363129" lon="-3.386213"><ele>689.0</ele><time>2026-03-28T18:09:33.32Z</time></trkpt><trkpt lat="40.6364258" lon="-3.3862107"><ele>689.75</ele><time>2026-03-28T18:09:34.32Z</time></trkpt><trkpt lat="40.6365328" lon="-3.3862108"><ele>690.5</ele><time>2026-03-28T18:09:35.32Z</time></trkpt><trkpt lat="40.63664" lon="-3.3862133"><ele>691.25</ele><time>2026-03-28T18:09:36.32Z</time></trkpt><trkpt lat="40.6367569" lon="-3.3862168"><ele>692.0</ele><time>2026-03-28T18:09:37.32Z</time></trkpt><trkpt lat="40.6368855" lon="-3.386236"><ele>692.25</ele><time>2026-03-28T18:09:38.32Z</time></trkpt><trkpt lat="40.6370188" lon="-3.3862645"><ele>692.5</ele><time>2026-03-28T18:09:39.32Z</time></trkpt><trkpt lat="40.637146" lon="-3.3862913"><ele>692.75</ele><time>2026-03-28T18:09:40.32Z</time></trkpt><trkpt lat="40.6372751" lon="-3.3863101"><ele>693.0</ele><time>2026-03-28T18:09:41.319Z</time></trkpt><trkpt lat="40.6373938" lon="-3.386333"><ele>693.2</ele><time>2026-03-28T18:09:42.32Z</time></trkpt><trkpt lat="40.6375072" lon="-3.3863481"><ele>693.4</ele><time>2026-03-28T18:09:43.319Z</time></trkpt><trkpt lat="40.6376183" lon="-3.38637"><ele>693.6</ele><time>2026-03-28T18:09:44.32Z</time></trkpt><trkpt lat="40.6377267" lon="-3.3863833"><ele>693.8000000000001</ele><time>2026-03-28T18:09:45.32Z</time></trkpt><trkpt lat="40.6378183" lon="-3.3864017"><ele>694.0</ele><time>2026-03-28T18:09:46.32Z</time></trkpt><trkpt lat="40.63791" lon="-3.3864217"><ele>694.2</ele><time>2026-03-28T18:09:47.32Z</time></trkpt><trkpt lat="40.6380167" lon="-3.386445"><ele>694.4000000000001</ele><time>2026-03-28T18:09:48.32Z</time></trkpt><trkpt lat="40.6381217" lon="-3.3864683"><ele>694.6</ele><time>2026-03-28T18:09:49.319Z</time></trkpt><trkpt lat="40.6382317" lon="-3.3864933"><ele>694.8</ele><time>2026-03-28T18:09:50.319Z</time></trkpt><trkpt lat="40.6383383" lon="-3.3865133"><ele>695.0</ele><time>2026-03-28T18:09:51.319Z</time></trkpt><trkpt lat="40.638435" lon="-3.3865283"><ele>695.0</ele><time>2026-03-28T18:09:52.319Z</time></trkpt><trkpt lat="40.638525" lon="-3.386535"><ele>695.0</ele><time>2026-03-28T18:09:53.319Z</time></trkpt><trkpt lat="40.6386267" lon="-3.3865383"><ele>695.0</ele><time>2026-03-28T18:09:54.32Z</time></trkpt><trkpt lat="40.6387383" lon="-3.3865533"><ele>695.0</ele><time>2026-03-28T18:09:55.319Z</time></trkpt><trkpt lat="40.6388533" lon="-3.3865667"><ele>695.0</ele><time>2026-03-28T18:09:56.32Z</time></trkpt><trkpt lat="40.6389583" lon="-3.3865833"><ele>695.8</ele><time>2026-03-28T18:09:57.32Z</time></trkpt><trkpt lat="40.6390533" lon="-3.3866017"><ele>696.6</ele><time>2026-03-28T18:09:58.32Z</time></trkpt><trkpt lat="40.6391383" lon="-3.3866133"><ele>697.4000000000001</ele><time>2026-03-28T18:09:59.32Z</time></trkpt><trkpt lat="40.639235" lon="-3.386605"><ele>698.2</ele><time>2026-03-28T18:10:00.319Z</time></trkpt><trkpt lat="40.6393317" lon="-3.3866017"><ele>699.0</ele><time>2026-03-28T18:10:01.32Z</time></trkpt><trkpt lat="40.6394383" lon="-3.3865817"><ele>699.4000000000001</ele><time>2026-03-28T18:10:02.32Z</time></trkpt><trkpt lat="40.6395483" lon="-3.3865583"><ele>699.8</ele><time>2026-03-28T18:10:03.32Z</time></trkpt><trkpt lat="40.639655" lon="-3.386535"><ele>700.2</ele><time>2026-03-28T18:10:04.32Z</time></trkpt><trkpt lat="40.6397633" lon="-3.38651"><ele>700.5999999999999</ele><time>2026-03-28T18:10:05.319Z</time></trkpt><trkpt lat="40.6398767" lon="-3.3864783"><ele>701.0</ele><time>2026-03-28T18:10:06.319Z</time></trkpt><trkpt lat="40.639995" lon="-3.3864483"><ele>701.0</ele><time>2026-03-28T18:10:07.32Z</time></trkpt><trkpt lat="40.6401167" lon="-3.3864183"><ele>701.0</ele><time>2026-03-28T18:10:08.32Z</time></trkpt><trkpt lat="40.64024" lon="-3.386385"><ele>701.0</ele><time>2026-03-28T18:10:09.32Z</time></trkpt><trkpt lat="40.6403567" lon="-3.3863567"><ele>701.0</ele><time>2026-03-28T18:10:10.319Z</time></trkpt><trkpt lat="40.6404633" lon="-3.3863317"><ele>701.8</ele><time>2026-03-28T18:10:11.318Z</time></trkpt><trkpt lat="40.6405617" lon="-3.3863133"><ele>702.5999999999999</ele><time>2026-03-28T18:10:12.319Z</time></trkpt><trkpt lat="40.6406583" lon="-3.386315"><ele>703.4</ele><time>2026-03-28T18:10:13.318Z</time></trkpt><trkpt lat="40.640765" lon="-3.38632"><ele>704.2</ele><time>2026-03-28T18:10:14.319Z</time></trkpt><trkpt lat="40.640875" lon="-3.38633"><ele>705.0</ele><time>2026-03-28T18:10:15.319Z</time></trkpt><trkpt lat="40.64099" lon="-3.3863467"><ele>705.0</ele><time>2026-03-28T18:10:16.319Z</time></trkpt><trkpt lat="40.6411017" lon="-3.386375"><ele>705.0</ele><time>2026-03-28T18:10:17.319Z</time></trkpt><trkpt lat="40.6412167" lon="-3.3864133"><ele>705.0</ele><time>2026-03-28T18:10:18.318Z</time></trkpt><trkpt lat="40.6413333" lon="-3.3864467"><ele>705.0</ele><time>2026-03-28T18:10:19.319Z</time></trkpt><trkpt lat="40.6414383" lon="-3.3864883"><ele>705.2</ele><time>2026-03-28T18:10:20.319Z</time></trkpt><trkpt lat="40.6415483" lon="-3.386525"><ele>705.4</ele><time>2026-03-28T18:10:21.319Z</time></trkpt><trkpt lat="40.6416583" lon="-3.3865533"><ele>705.5999999999999</ele><time>2026-03-28T18:10:22.319Z</time></trkpt><trkpt lat="40.6417533" lon="-3.3865783"><ele>705.8</ele><time>2026-03-28T18:10:23.319Z</time></trkpt><trkpt lat="40.641845" lon="-3.38661"><ele>706.0</ele><time>2026-03-28T18:10:24.319Z</time></trkpt><trkpt lat="40.64194" lon="-3.386635"><ele>706.1999999999999</ele><time>2026-03-28T18:10:25.319Z</time></trkpt><trkpt lat="40.6420417" lon="-3.3866767"><ele>706.4</ele><time>2026-03-28T18:10:26.318Z</time></trkpt><trkpt lat="40.6421283" lon="-3.3867017"><ele>706.6</ele><time>2026-03-28T18:10:27.318Z</time></trkpt><trkpt lat="40.6422183" lon="-3.386725"><ele>706.8</ele><time>2026-03-28T18:10:28.319Z</time></trkpt><trkpt lat="40.6423067" lon="-3.3867433"><ele>707.0</ele><time>2026-03-28T18:10:29.319Z</time></trkpt><trkpt lat="40.6424" lon="-3.3867583"><ele>707.0</ele><time>2026-03-28T18:10:30.319Z</time></trkpt><trkpt lat="40.64249" lon="-3.38677"><ele>707.0</ele><time>2026-03-28T18:10:31.319Z</time></trkpt><trkpt lat="40.6425767" lon="-3.3867833"><ele>707.0</ele><time>2026-03-28T18:10:32.319Z</time></trkpt><trkpt lat="40.6426683" lon="-3.386795"><ele>707.0</ele><time>2026-03-28T18:10:33.319Z</time></trkpt><trkpt lat="40.642765" lon="-3.3868083"><ele>707.0</ele><time>2026-03-28T18:10:34.318Z</time></trkpt><trkpt lat="40.6428433" lon="-3.3868233"><ele>707.0</ele><time>2026-03-28T18:10:35.319Z</time></trkpt><trkpt lat="40.6429217" lon="-3.386835"><ele>706.5</ele><time>2026-03-28T18:10:36.319Z</time></trkpt><trkpt lat="40.642995" lon="-3.3868467"><ele>706.0</ele><time>2026-03-28T18:10:37.319Z</time></trkpt><trkpt lat="40.6430667" lon="-3.3868533"><ele>705.5</ele><time>2026-03-28T18:10:38.319Z</time></trkpt><trkpt lat="40.64317" lon="-3.386875"><ele>705.0</ele><time>2026-03-28T18:10:40.319Z</time></trkpt><trkpt lat="40.643245" lon="-3.3868933"><ele>704.5</ele><time>2026-03-28T18:10:42.318Z</time></trkpt><trkpt lat="40.6433383" lon="-3.3869033"><ele>704.0</ele><time>2026-03-28T18:10:44.319Z</time></trkpt><trkpt lat="40.6434733" lon="-3.3869283"><ele>704.0</ele><time>2026-03-28T18:10:46.319Z</time></trkpt><trkpt lat="40.6435583" lon="-3.38695"><ele>704.0</ele><time>2026-03-28T18:10:47.319Z</time></trkpt><trkpt lat="40.6436667" lon="-3.3869833"><ele>704.0</ele><time>2026-03-28T18:10:48.319Z</time></trkpt><trkpt lat="40.643775" lon="-3.3870083"><ele>704.0</ele><time>2026-03-28T18:10:49.319Z</time></trkpt><trkpt lat="40.6438783" lon="-3.387025"><ele>704.0</ele><time>2026-03-28T18:10:50.318Z</time></trkpt><trkpt lat="40.6439717" lon="-3.3870433"><ele>704.6666666666666</ele><time>2026-03-28T18:10:51.319Z</time></trkpt><trkpt lat="40.6440567" lon="-3.387055"><ele>705.3333333333333</ele><time>2026-03-28T18:10:52.319Z</time></trkpt><trkpt lat="40.64414" lon="-3.3870817"><ele>706.0</ele><time>2026-03-28T18:10:53.319Z</time></trkpt><trkpt lat="40.644215" lon="-3.3871067"><ele>706.6666666666666</ele><time>2026-03-28T18:10:54.318Z</time></trkpt><trkpt lat="40.644285" lon="-3.3871317"><ele>707.3333333333334</ele><time>2026-03-28T18:10:55.318Z</time></trkpt><trkpt lat="40.6443667" lon="-3.3871483"><ele>708.0</ele><time>2026-03-28T18:10:56.319Z</time></trkpt><trkpt lat="40.6444617" lon="-3.3871683"><ele>708.25</ele><time>2026-03-28T18:10:57.319Z</time></trkpt><trkpt lat="40.644575" lon="-3.3871883"><ele>708.5</ele><time>2026-03-28T18:10:58.319Z</time></trkpt><trkpt lat="40.6447033" lon="-3.3872117"><ele>708.75</ele><time>2026-03-28T18:10:59.319Z</time></trkpt><trkpt lat="40.644835" lon="-3.38724"><ele>709.0</ele><time>2026-03-28T18:11:00.319Z</time></trkpt><trkpt lat="40.6449667" lon="-3.3872633"><ele>709.0</ele><time>2026-03-28T18:11:01.319Z</time></trkpt><trkpt lat="40.6450883" lon="-3.387285"><ele>709.0</ele><time>2026-03-28T18:11:02.318Z</time></trkpt><trkpt lat="40.6452017" lon="-3.3873033"><ele>709.0</ele><time>2026-03-28T18:11:03.319Z</time></trkpt><trkpt lat="40.6453167" lon="-3.3873317"><ele>709.0</ele><time>2026-03-28T18:11:04.319Z</time></trkpt><trkpt lat="40.6454333" lon="-3.38736"><ele>709.25</ele><time>2026-03-28T18:11:05.319Z</time></trkpt><trkpt lat="40.6455633" lon="-3.3873817"><ele>709.5</ele><time>2026-03-28T18:11:06.318Z</time></trkpt><trkpt lat="40.6457" lon="-3.3874083"><ele>709.75</ele><time>2026-03-28T18:11:07.319Z</time></trkpt><trkpt lat="40.6458233" lon="-3.3874317"><ele>710.0</ele><time>2026-03-28T18:11:08.318Z</time></trkpt><trkpt lat="40.645945" lon="-3.3874483"><ele>710.0</ele><time>2026-03-28T18:11:09.318Z</time></trkpt><trkpt lat="40.6460583" lon="-3.387475"><ele>710.0</ele><time>2026-03-28T18:11:10.319Z</time></trkpt><trkpt lat="40.6461633" lon="-3.3875"><ele>710.0</ele><time>2026-03-28T18:11:11.319Z</time></trkpt><trkpt lat="40.646265" lon="-3.3875183"><ele>710.0</ele><time>2026-03-28T18:11:12.318Z</time></trkpt><trkpt lat="40.6463717" lon="-3.3875433"><ele>710.0</ele><time>2026-03-28T18:11:13.319Z</time></trkpt><trkpt lat="40.64647" lon="-3.3875567"><ele>710.0</ele><time>2026-03-28T18:11:14.319Z</time></trkpt><trkpt lat="40.64657" lon="-3.3875683"><ele>710.0</ele><time>2026-03-28T18:11:15.319Z</time></trkpt><trkpt lat="40.6466683" lon="-3.3875817"><ele>710.0</ele><time>2026-03-28T18:11:16.318Z</time></trkpt><trkpt lat="40.64677" lon="-3.3876067"><ele>710.0</ele><time>2026-03-28T18:11:17.318Z</time></trkpt><trkpt lat="40.6468717" lon="-3.3876383"><ele>710.0</ele><time>2026-03-28T18:11:18.319Z</time></trkpt><trkpt lat="40.6469783" lon="-3.387665"><ele>710.5</ele><time>2026-03-28T18:11:19.319Z</time></trkpt><trkpt lat="40.64709" lon="-3.3876833"><ele>711.0</ele><time>2026-03-28T18:11:20.319Z</time></trkpt><trkpt lat="40.6472117" lon="-3.387705"><ele>711.5</ele><time>2026-03-28T18:11:21.319Z</time></trkpt><trkpt lat="40.6473317" lon="-3.3877317"><ele>712.0</ele><time>2026-03-28T18:11:22.318Z</time></trkpt><trkpt lat="40.647445" lon="-3.3877533"><ele>712.0</ele><time>2026-03-28T18:11:23.319Z</time></trkpt><trkpt lat="40.6475633" lon="-3.3877767"><ele>712.0</ele><time>2026-03-28T18:11:24.318Z</time></trkpt><trkpt lat="40.6476833" lon="-3.3878"><ele>712.0</ele><time>2026-03-28T18:11:25.319Z</time></trkpt><trkpt lat="40.6478033" lon="-3.387825"><ele>712.0</ele><time>2026-03-28T18:11:26.318Z</time></trkpt><trkpt lat="40.647925" lon="-3.3878467"><ele>712.5</ele><time>2026-03-28T18:11:27.319Z</time></trkpt><trkpt lat="40.6480417" lon="-3.38787"><ele>713.0</ele><time>2026-03-28T18:11:28.318Z</time></trkpt><trkpt lat="40.64815" lon="-3.3878933"><ele>713.5</ele><time>2026-03-28T18:11:29.319Z</time></trkpt><trkpt lat="40.6482617" lon="-3.3879183"><ele>714.0</ele><time>2026-03-28T18:11:30.319Z</time></trkpt><trkpt lat="40.6483833" lon="-3.387945"><ele>714.0</ele><time>2026-03-28T18:11:31.319Z</time></trkpt><trkpt lat="40.648505" lon="-3.3879733"><ele>714.0</ele><time>2026-03-28T18:11:32.319Z</time></trkpt><trkpt lat="40.648625" lon="-3.3879967"><ele>714.0</ele><time>2026-03-28T18:11:33.319Z</time></trkpt><trkpt lat="40.6487483" lon="-3.38802"><ele>714.0</ele><time>2026-03-28T18:11:34.319Z</time></trkpt><trkpt lat="40.6488683" lon="-3.3880517"><ele>714.25</ele><time>2026-03-28T18:11:35.319Z</time></trkpt><trkpt lat="40.6489867" lon="-3.3880733"><ele>714.5</ele><time>2026-03-28T18:11:36.318Z</time></trkpt><trkpt lat="40.64911" lon="-3.3880933"><ele>714.75</ele><time>2026-03-28T18:11:37.319Z</time></trkpt><trkpt lat="40.6492333" lon="-3.3881183"><ele>715.0</ele><time>2026-03-28T18:11:38.318Z</time></trkpt><trkpt lat="40.6493533" lon="-3.388145"><ele>715.75</ele><time>2026-03-28T18:11:39.319Z</time></trkpt><trkpt lat="40.64947" lon="-3.38817"><ele>716.5</ele><time>2026-03-28T18:11:40.319Z</time></trkpt><trkpt lat="40.64959" lon="-3.3881917"><ele>717.25</ele><time>2026-03-28T18:11:41.318Z</time></trkpt><trkpt lat="40.649715" lon="-3.3882217"><ele>718.0</ele><time>2026-03-28T18:11:42.318Z</time></trkpt><trkpt lat="40.6498433" lon="-3.3882533"><ele>718.0</ele><time>2026-03-28T18:11:43.318Z</time></trkpt><trkpt lat="40.64996" lon="-3.3882817"><ele>718.0</ele><time>2026-03-28T18:11:44.318Z</time></trkpt><trkpt lat="40.6500633" lon="-3.388305"><ele>718.0</ele><time>2026-03-28T18:11:45.319Z</time></trkpt><trkpt lat="40.650155" lon="-3.3883233"><ele>718.0</ele><time>2026-03-28T18:11:46.319Z</time></trkpt><trkpt lat="40.65024" lon="-3.3883467"><ele>718.0</ele><time>2026-03-28T18:11:47.319Z</time></trkpt><trkpt lat="40.65032" lon="-3.3883683"><ele>718.5</ele><time>2026-03-28T18:11:48.318Z</time></trkpt><trkpt lat="40.6504033" lon="-3.388385"><ele>719.0</ele><time>2026-03-28T18:11:49.319Z</time></trkpt><trkpt lat="40.650475" lon="-3.3884067"><ele>719.5</ele><time>2026-03-28T18:11:50.319Z</time></trkpt><trkpt lat="40.6505533" lon="-3.3884183"><ele>720.0</ele><time>2026-03-28T18:11:51.319Z</time></trkpt><trkpt lat="40.6506417" lon="-3.388425"><ele>720.5</ele><time>2026-03-28T18:11:52.318Z</time></trkpt><trkpt lat="40.65074" lon="-3.38842"><ele>721.0</ele><time>2026-03-28T18:11:53.319Z</time></trkpt><trkpt lat="40.65084" lon="-3.3884117"><ele>721.0</ele><time>2026-03-28T18:11:54.319Z</time></trkpt><trkpt lat="40.6509517" lon="-3.3884017"><ele>721.0</ele><time>2026-03-28T18:11:55.319Z</time></trkpt><trkpt lat="40.6510533" lon="-3.3883967"><ele>721.0</ele><time>2026-03-28T18:11:56.319Z</time></trkpt><trkpt lat="40.65115" lon="-3.3883917"><ele>721.0</ele><time>2026-03-28T18:11:57.319Z</time></trkpt><trkpt lat="40.6512583" lon="-3.3883717"><ele>721.0</ele><time>2026-03-28T18:11:58.319Z</time></trkpt><trkpt lat="40.65137" lon="-3.3883517"><ele>721.4</ele><time>2026-03-28T18:11:59.319Z</time></trkpt><trkpt lat="40.65147" lon="-3.3883367"><ele>721.8</ele><time>2026-03-28T18:12:00.319Z</time></trkpt><trkpt lat="40.651565" lon="-3.3883233"><ele>722.1999999999999</ele><time>2026-03-28T18:12:01.319Z</time></trkpt><trkpt lat="40.65166" lon="-3.3883183"><ele>722.5999999999999</ele><time>2026-03-28T18:12:02.318Z</time></trkpt><trkpt lat="40.6517633" lon="-3.3883217"><ele>723.0</ele><time>2026-03-28T18:12:03.319Z</time></trkpt><trkpt lat="40.651865" lon="-3.3883383"><ele>723.2</ele><time>2026-03-28T18:12:04.319Z</time></trkpt><trkpt lat="40.6519683" lon="-3.3883583"><ele>723.4</ele><time>2026-03-28T18:12:05.318Z</time></trkpt><trkpt lat="40.652075" lon="-3.3883817"><ele>723.6</ele><time>2026-03-28T18:12:06.318Z</time></trkpt><trkpt lat="40.6521633" lon="-3.388415"><ele>723.8000000000001</ele><time>2026-03-28T18:12:07.319Z</time></trkpt><trkpt lat="40.65226" lon="-3.38845"><ele>724.0</ele><time>2026-03-28T18:12:08.319Z</time></trkpt><trkpt lat="40.6523583" lon="-3.3884783"><ele>724.0</ele><time>2026-03-28T18:12:09.319Z</time></trkpt><trkpt lat="40.6524483" lon="-3.3884917"><ele>724.0</ele><time>2026-03-28T18:12:10.319Z</time></trkpt><trkpt lat="40.65254" lon="-3.3885133"><ele>724.0</ele><time>2026-03-28T18:12:11.319Z</time></trkpt><trkpt lat="40.6526367" lon="-3.3885417"><ele>724.0</ele><time>2026-03-28T18:12:12.319Z</time></trkpt><trkpt lat="40.6527333" lon="-3.388575"><ele>724.0</ele><time>2026-03-28T18:12:13.319Z</time></trkpt><trkpt lat="40.6528533" lon="-3.388605"><ele>723.5</ele><time>2026-03-28T18:12:14.319Z</time></trkpt><trkpt lat="40.65297" lon="-3.3886367"><ele>723.0</ele><time>2026-03-28T18:12:15.319Z</time></trkpt><trkpt lat="40.6530867" lon="-3.38868"><ele>722.5</ele><time>2026-03-28T18:12:16.318Z</time></trkpt><trkpt lat="40.6532067" lon="-3.388725"><ele>722.0</ele><time>2026-03-28T18:12:17.318Z</time></trkpt><trkpt lat="40.6533417" lon="-3.3887583"><ele>722.0</ele><time>2026-03-28T18:12:18.319Z</time></trkpt><trkpt lat="40.6534683" lon="-3.3887767"><ele>722.0</ele><time>2026-03-28T18:12:19.319Z</time></trkpt><trkpt lat="40.65357" lon="-3.3887983"><ele>722.0</ele><time>2026-03-28T18:12:20.318Z</time></trkpt><trkpt lat="40.6536717" lon="-3.3888217"><ele>722.0</ele><time>2026-03-28T18:12:21.319Z</time></trkpt><trkpt lat="40.65377" lon="-3.3888367"><ele>722.0</ele><time>2026-03-28T18:12:22.319Z</time></trkpt><trkpt lat="40.653875" lon="-3.388855"><ele>723.2</ele><time>2026-03-28T18:12:23.319Z</time></trkpt><trkpt lat="40.6539883" lon="-3.3888683"><ele>724.4000000000001</ele><time>2026-03-28T18:12:24.319Z</time></trkpt><trkpt lat="40.654095" lon="-3.3888867"><ele>725.5999999999999</ele><time>2026-03-28T18:12:25.318Z</time></trkpt><trkpt lat="40.6541933" lon="-3.3888983"><ele>726.8</ele><time>2026-03-28T18:12:26.318Z</time></trkpt><trkpt lat="40.6542833" lon="-3.388915"><ele>728.0</ele><time>2026-03-28T18:12:27.319Z</time></trkpt><trkpt lat="40.6543667" lon="-3.38892"><ele>728.0</ele><time>2026-03-28T18:12:28.318Z</time></trkpt><trkpt lat="40.6544483" lon="-3.3889433"><ele>728.0</ele><time>2026-03-28T18:12:29.319Z</time></trkpt><trkpt lat="40.6545333" lon="-3.3889783"><ele>728.0</ele><time>2026-03-28T18:12:30.318Z</time></trkpt><trkpt lat="40.6546117" lon="-3.3890117"><ele>728.0</ele><time>2026-03-28T18:12:31.319Z</time></trkpt><trkpt lat="40.654675" lon="-3.3890383"><ele>728.0</ele><time>2026-03-28T18:12:32.319Z</time></trkpt><trkpt lat="40.6547883" lon="-3.389095"><ele>728.0</ele><time>2026-03-28T18:12:34.319Z</time></trkpt><trkpt lat="40.654905" lon="-3.3891633"><ele>727.6666666666666</ele><time>2026-03-28T18:12:36.318Z</time></trkpt><trkpt lat="40.6549767" lon="-3.38921"><ele>727.3333333333333</ele><time>2026-03-28T18:12:37.318Z</time></trkpt><trkpt lat="40.6550517" lon="-3.38926"><ele>727.0</ele><time>2026-03-28T18:12:38.319Z</time></trkpt><trkpt lat="40.6551233" lon="-3.3893133"><ele>726.6666666666666</ele><time>2026-03-28T18:12:39.318Z</time></trkpt><trkpt lat="40.6551833" lon="-3.389355"><ele>726.3333333333334</ele><time>2026-03-28T18:12:40.319Z</time></trkpt><trkpt lat="40.6552817" lon="-3.3894383"><ele>726.0</ele><time>2026-03-28T18:12:42.319Z</time></trkpt><trkpt lat="40.6553433" lon="-3.38948"><ele>726.0</ele><time>2026-03-28T18:12:43.319Z</time></trkpt><trkpt lat="40.6554033" lon="-3.38952"><ele>726.0</ele><time>2026-03-28T18:12:44.318Z</time></trkpt><trkpt lat="40.655465" lon="-3.3895633"><ele>726.0</ele><time>2026-03-28T18:12:45.319Z</time></trkpt><trkpt lat="40.65554" lon="-3.3896217"><ele>726.0</ele><time>2026-03-28T18:12:46.318Z</time></trkpt><trkpt lat="40.6556167" lon="-3.389675"><ele>726.0</ele><time>2026-03-28T18:12:47.319Z</time></trkpt><trkpt lat="40.655695" lon="-3.3897233"><ele>726.0</ele><time>2026-03-28T18:12:48.319Z</time></trkpt><trkpt lat="40.655765" lon="-3.3897717"><ele>726.1666666666666</ele><time>2026-03-28T18:12:49.319Z</time></trkpt><trkpt lat="40.6558367" lon="-3.3898217"><ele>726.3333333333334</ele><time>2026-03-28T18:12:50.319Z</time></trkpt><trkpt lat="40.6559" lon="-3.3898533"><ele>726.5</ele><time>2026-03-28T18:12:51.318Z</time></trkpt><trkpt lat="40.655975" lon="-3.3898667"><ele>726.6666666666667</ele><time>2026-03-28T18:12:52.319Z</time></trkpt><trkpt lat="40.6560517" lon="-3.389865"><ele>726.8333333333334</ele><time>2026-03-28T18:12:53.319Z</time></trkpt><trkpt lat="40.6561283" lon="-3.38985"><ele>727.0</ele><time>2026-03-28T18:12:54.319Z</time></trkpt><trkpt lat="40.656205" lon="-3.389825"><ele>727.0</ele><time>2026-03-28T18:12:55.319Z</time></trkpt><trkpt lat="40.65629" lon="-3.3898"><ele>727.0</ele><time>2026-03-28T18:12:56.319Z</time></trkpt><trkpt lat="40.6563717" lon="-3.3897783"><ele>727.0</ele><time>2026-03-28T18:12:57.319Z</time></trkpt><trkpt lat="40.6564617" lon="-3.3897683"><ele>727.0</ele><time>2026-03-28T18:12:58.319Z</time></trkpt><trkpt lat="40.6565667" lon="-3.3897533"><ele>727.0</ele><time>2026-03-28T18:12:59.319Z</time></trkpt><trkpt lat="40.6566833" lon="-3.3897417"><ele>727.0</ele><time>2026-03-28T18:13:00.319Z</time></trkpt><trkpt lat="40.6568" lon="-3.3897433"><ele>727.0</ele><time>2026-03-28T18:13:01.319Z</time></trkpt><trkpt lat="40.6569083" lon="-3.389755"><ele>727.0</ele><time>2026-03-28T18:13:02.319Z</time></trkpt><trkpt lat="40.65703" lon="-3.3897767"><ele>727.0</ele><time>2026-03-28T18:13:03.319Z</time></trkpt><trkpt lat="40.6571633" lon="-3.389805"><ele>727.25</ele><time>2026-03-28T18:13:04.319Z</time></trkpt><trkpt lat="40.6572833" lon="-3.3898417"><ele>727.5</ele><time>2026-03-28T18:13:05.319Z</time></trkpt><trkpt lat="40.6574" lon="-3.3898717"><ele>727.75</ele><time>2026-03-28T18:13:06.319Z</time></trkpt><trkpt lat="40.657515" lon="-3.3899017"><ele>728.0</ele><time>2026-03-28T18:13:07.318Z</time></trkpt><trkpt lat="40.657625" lon="-3.3899233"><ele>728.0</ele><time>2026-03-28T18:13:08.318Z</time></trkpt><trkpt lat="40.6577283" lon="-3.38994"><ele>728.0</ele><time>2026-03-28T18:13:09.319Z</time></trkpt><trkpt lat="40.65783" lon="-3.3899483"><ele>728.0</ele><time>2026-03-28T18:13:10.318Z</time></trkpt><trkpt lat="40.6579433" lon="-3.3899467"><ele>728.0</ele><time>2026-03-28T18:13:11.319Z</time></trkpt><trkpt lat="40.6580517" lon="-3.3899267"><ele>728.0</ele><time>2026-03-28T18:13:12.318Z</time></trkpt><trkpt lat="40.6581483" lon="-3.3899033"><ele>728.0</ele><time>2026-03-28T18:13:13.319Z</time></trkpt><trkpt lat="40.6582333" lon="-3.3898883"><ele>728.0</ele><time>2026-03-28T18:13:14.319Z</time></trkpt><trkpt lat="40.6583183" lon="-3.3898717"><ele>728.0</ele><time>2026-03-28T18:13:15.318Z</time></trkpt><trkpt lat="40.6583933" lon="-3.3898383"><ele>728.0</ele><time>2026-03-28T18:13:16.318Z</time></trkpt><trkpt lat="40.658465" lon="-3.3897967"><ele>728.0</ele><time>2026-03-28T18:13:17.318Z</time></trkpt><trkpt lat="40.658545" lon="-3.389745"><ele>728.0</ele><time>2026-03-28T18:13:18.318Z</time></trkpt><trkpt lat="40.6586283" lon="-3.3896933"><ele>728.5999999999999</ele><time>2026-03-28T18:13:19.318Z</time></trkpt><trkpt lat="40.6587067" lon="-3.3896267"><ele>729.1999999999999</ele><time>2026-03-28T18:13:20.319Z</time></trkpt><trkpt lat="40.6587817" lon="-3.3895483"><ele>729.8</ele><time>2026-03-28T18:13:21.319Z</time></trkpt><trkpt lat="40.6588633" lon="-3.3894617"><ele>730.4</ele><time>2026-03-28T18:13:22.318Z</time></trkpt><trkpt lat="40.658945" lon="-3.3893783"><ele>731.0</ele><time>2026-03-28T18:13:23.319Z</time></trkpt><trkpt lat="40.6590217" lon="-3.3892983"><ele>731.0</ele><time>2026-03-28T18:13:24.319Z</time></trkpt><trkpt lat="40.6590967" lon="-3.3892283"><ele>731.0</ele><time>2026-03-28T18:13:25.319Z</time></trkpt><trkpt lat="40.6591683" lon="-3.3891633"><ele>731.0</ele><time>2026-03-28T18:13:26.319Z</time></trkpt><trkpt lat="40.65924" lon="-3.3891"><ele>731.0</ele><time>2026-03-28T18:13:27.319Z</time></trkpt><trkpt lat="40.6593033" lon="-3.3890467"><ele>731.0</ele><time>2026-03-28T18:13:28.318Z</time></trkpt><trkpt lat="40.6593933" lon="-3.3889867"><ele>731.0</ele><time>2026-03-28T18:13:30.318Z</time></trkpt><trkpt lat="40.6594283" lon="-3.3889033"><ele>732.1999999999999</ele><time>2026-03-28T18:13:32.318Z</time></trkpt><trkpt lat="40.6593617" lon="-3.38878"><ele>733.4</ele><time>2026-03-28T18:13:35.319Z</time></trkpt><trkpt lat="40.6593017" lon="-3.3887283"><ele>734.6</ele><time>2026-03-28T18:13:36.318Z</time></trkpt><trkpt lat="40.6592167" lon="-3.3886533"><ele>735.8</ele><time>2026-03-28T18:13:37.319Z</time></trkpt><trkpt lat="40.65913" lon="-3.3885667"><ele>737.0</ele><time>2026-03-28T18:13:38.318Z</time></trkpt><trkpt lat="40.6590517" lon="-3.3884817"><ele>737.0</ele><time>2026-03-28T18:13:39.319Z</time></trkpt><trkpt lat="40.6589733" lon="-3.3883833"><ele>737.0</ele><time>2026-03-28T18:13:40.318Z</time></trkpt><trkpt lat="40.6588967" lon="-3.3882667"><ele>737.0</ele><time>2026-03-28T18:13:41.319Z</time></trkpt><trkpt lat="40.6588283" lon="-3.3881533"><ele>737.0</ele><time>2026-03-28T18:13:42.318Z</time></trkpt><trkpt lat="40.6587583" lon="-3.3880383"><ele>737.0</ele><time>2026-03-28T18:13:43.319Z</time></trkpt><trkpt lat="40.6586917" lon="-3.3879217"><ele>737.5</ele><time>2026-03-28T18:13:44.318Z</time></trkpt><trkpt lat="40.6586183" lon="-3.3878"><ele>738.0</ele><time>2026-03-28T18:13:45.318Z</time></trkpt><trkpt lat="40.6585417" lon="-3.38769"><ele>738.5</ele><time>2026-03-28T18:13:46.318Z</time></trkpt><trkpt lat="40.65846" lon="-3.38759"><ele>739.0</ele><time>2026-03-28T18:13:47.318Z</time></trkpt><trkpt lat="40.65837" lon="-3.387475"><ele>739.0</ele><time>2026-03-28T18:13:48.319Z</time></trkpt><trkpt lat="40.6582733" lon="-3.387355"><ele>739.0</ele><time>2026-03-28T18:13:49.319Z</time></trkpt><trkpt lat="40.6581767" lon="-3.387225"><ele>739.0</ele><time>2026-03-28T18:13:50.318Z</time></trkpt><trkpt lat="40.6580867" lon="-3.3871067"><ele>739.0</ele><time>2026-03-28T18:13:51.319Z</time></trkpt><trkpt lat="40.658005" lon="-3.3869933"><ele>738.5</ele><time>2026-03-28T18:13:52.318Z</time></trkpt><trkpt lat="40.6579333" lon="-3.3868833"><ele>738.0</ele><time>2026-03-28T18:13:53.318Z</time></trkpt><trkpt lat="40.657845" lon="-3.3867717"><ele>737.5</ele><time>2026-03-28T18:13:54.319Z</time></trkpt><trkpt lat="40.6577633" lon="-3.3866567"><ele>737.0</ele><time>2026-03-28T18:13:55.318Z</time></trkpt><trkpt lat="40.6576767" lon="-3.38655"><ele>736.0</ele><time>2026-03-28T18:13:56.318Z</time></trkpt><trkpt lat="40.657595" lon="-3.3864383"><ele>735.0</ele><time>2026-03-28T18:13:57.319Z</time></trkpt><trkpt lat="40.6575183" lon="-3.386335"><ele>734.0</ele><time>2026-03-28T18:13:58.319Z</time></trkpt><trkpt lat="40.65744" lon="-3.38622"><ele>733.0</ele><time>2026-03-28T18:13:59.319Z</time></trkpt><trkpt lat="40.6573567" lon="-3.3861033"><ele>732.5</ele><time>2026-03-28T18:14:00.318Z</time></trkpt><trkpt lat="40.6572717" lon="-3.3859967"><ele>732.0</ele><time>2026-03-28T18:14:01.318Z</time></trkpt><trkpt lat="40.657195" lon="-3.3858917"><ele>731.5</ele><time>2026-03-28T18:14:02.319Z</time></trkpt><trkpt lat="40.657115" lon="-3.3857817"><ele>731.0</ele><time>2026-03-28T18:14:03.318Z</time></trkpt><trkpt lat="40.657035" lon="-3.3856683"><ele>730.5</ele><time>2026-03-28T18:14:04.319Z</time></trkpt><trkpt lat="40.656945" lon="-3.38555"><ele>730.0</ele><time>2026-03-28T18:14:05.319Z</time></trkpt><trkpt lat="40.6568567" lon="-3.3854333"><ele>729.5</ele><time>2026-03-28T18:14:06.318Z</time></trkpt><trkpt lat="40.656775" lon="-3.38532"><ele>729.0</ele><time>2026-03-28T18:14:07.318Z</time></trkpt><trkpt lat="40.6566967" lon="-3.3852167"><ele>728.75</ele><time>2026-03-28T18:14:08.319Z</time></trkpt><trkpt lat="40.6566183" lon="-3.3851017"><ele>728.5</ele><time>2026-03-28T18:14:09.318Z</time></trkpt><trkpt lat="40.6565367" lon="-3.3849833"><ele>728.25</ele><time>2026-03-28T18:14:10.318Z</time></trkpt><trkpt lat="40.656455" lon="-3.3848583"><ele>728.0</ele><time>2026-03-28T18:14:11.318Z</time></trkpt><trkpt lat="40.6563683" lon="-3.3847367"><ele>727.5</ele><time>2026-03-28T18:14:12.319Z</time></trkpt><trkpt lat="40.65628" lon="-3.3846217"><ele>727.0</ele><time>2026-03-28T18:14:13.319Z</time></trkpt><trkpt lat="40.65619" lon="-3.3845017"><ele>726.5</ele><time>2026-03-28T18:14:14.319Z</time></trkpt><trkpt lat="40.6561033" lon="-3.384385"><ele>726.0</ele><time>2026-03-28T18:14:15.318Z</time></trkpt><trkpt lat="40.6560217" lon="-3.384275"><ele>725.25</ele><time>2026-03-28T18:14:16.319Z</time></trkpt><trkpt lat="40.6559417" lon="-3.3841617"><ele>724.5</ele><time>2026-03-28T18:14:17.318Z</time></trkpt><trkpt lat="40.6558633" lon="-3.3840583"><ele>723.75</ele><time>2026-03-28T18:14:18.318Z</time></trkpt><trkpt lat="40.6557833" lon="-3.3839417"><ele>723.0</ele><time>2026-03-28T18:14:19.319Z</time></trkpt><trkpt lat="40.6557083" lon="-3.38383"><ele>722.5999999999999</ele><time>2026-03-28T18:14:20.319Z</time></trkpt><trkpt lat="40.6556283" lon="-3.3837267"><ele>722.1999999999999</ele><time>2026-03-28T18:14:21.319Z</time></trkpt><trkpt lat="40.655545" lon="-3.3836217"><ele>721.8</ele><time>2026-03-28T18:14:22.319Z</time></trkpt><trkpt lat="40.6554683" lon="-3.383515"><ele>721.4</ele><time>2026-03-28T18:14:23.319Z</time></trkpt><trkpt lat="40.6553967" lon="-3.3834167"><ele>721.0</ele><time>2026-03-28T18:14:24.319Z</time></trkpt><trkpt lat="40.65533" lon="-3.3833233"><ele>720.5</ele><time>2026-03-28T18:14:25.318Z</time></trkpt><trkpt lat="40.6552517" lon="-3.38321"><ele>720.0</ele><time>2026-03-28T18:14:26.318Z</time></trkpt><trkpt lat="40.6551717" lon="-3.3830983"><ele>719.5</ele><time>2026-03-28T18:14:27.319Z</time></trkpt><trkpt lat="40.6550933" lon="-3.38299"><ele>719.0</ele><time>2026-03-28T18:14:28.319Z</time></trkpt><trkpt lat="40.6550117" lon="-3.38288"><ele>719.0</ele><time>2026-03-28T18:14:29.319Z</time></trkpt><trkpt lat="40.6549283" lon="-3.3827683"><ele>719.0</ele><time>2026-03-28T18:14:30.319Z</time></trkpt><trkpt lat="40.6548467" lon="-3.3826583"><ele>719.0</ele><time>2026-03-28T18:14:31.319Z</time></trkpt><trkpt lat="40.654775" lon="-3.3825567"><ele>719.0</ele><time>2026-03-28T18:14:32.319Z</time></trkpt><trkpt lat="40.6546933" lon="-3.382455"><ele>719.0</ele><time>2026-03-28T18:14:33.319Z</time></trkpt><trkpt lat="40.6546183" lon="-3.3823533"><ele>719.0</ele><time>2026-03-28T18:14:34.319Z</time></trkpt><trkpt lat="40.654545" lon="-3.3822567"><ele>719.0</ele><time>2026-03-28T18:14:35.319Z</time></trkpt><trkpt lat="40.6544683" lon="-3.3821483"><ele>719.0</ele><time>2026-03-28T18:14:36.319Z</time></trkpt><trkpt lat="40.6543917" lon="-3.3820433"><ele>719.0</ele><time>2026-03-28T18:14:37.318Z</time></trkpt><trkpt lat="40.6543167" lon="-3.3819367"><ele>717.75</ele><time>2026-03-28T18:14:38.319Z</time></trkpt><trkpt lat="40.6542367" lon="-3.3818333"><ele>716.5</ele><time>2026-03-28T18:14:39.319Z</time></trkpt><trkpt lat="40.65416" lon="-3.381725"><ele>715.25</ele><time>2026-03-28T18:14:40.319Z</time></trkpt><trkpt lat="40.6540767" lon="-3.3816133"><ele>714.0</ele><time>2026-03-28T18:14:41.319Z</time></trkpt><trkpt lat="40.65399" lon="-3.3815033"><ele>714.0</ele><time>2026-03-28T18:14:42.319Z</time></trkpt><trkpt lat="40.6539067" lon="-3.3814"><ele>714.0</ele><time>2026-03-28T18:14:43.319Z</time></trkpt><trkpt lat="40.653835" lon="-3.381295"><ele>714.0</ele><time>2026-03-28T18:14:44.319Z</time></trkpt><trkpt lat="40.65375" lon="-3.3811833"><ele>714.0</ele><time>2026-03-28T18:14:45.319Z</time></trkpt><trkpt lat="40.6536667" lon="-3.381075"><ele>713.5</ele><time>2026-03-28T18:14:46.319Z</time></trkpt><trkpt lat="40.6535883" lon="-3.38096"><ele>713.0</ele><time>2026-03-28T18:14:47.319Z</time></trkpt><trkpt lat="40.653505" lon="-3.3808383"><ele>712.5</ele><time>2026-03-28T18:14:48.319Z</time></trkpt><trkpt lat="40.6534167" lon="-3.380715"><ele>712.0</ele><time>2026-03-28T18:14:49.319Z</time></trkpt><trkpt lat="40.6533283" lon="-3.3805967"><ele>712.0</ele><time>2026-03-28T18:14:50.319Z</time></trkpt><trkpt lat="40.653245" lon="-3.3804783"><ele>712.0</ele><time>2026-03-28T18:14:51.319Z</time></trkpt><trkpt lat="40.6531683" lon="-3.380365"><ele>712.0</ele><time>2026-03-28T18:14:52.318Z</time></trkpt><trkpt lat="40.6530933" lon="-3.3802583"><ele>712.0</ele><time>2026-03-28T18:14:53.319Z</time></trkpt><trkpt lat="40.6530167" lon="-3.38015"><ele>712.0</ele><time>2026-03-28T18:14:54.318Z</time></trkpt><trkpt lat="40.6529383" lon="-3.3800417"><ele>712.0</ele><time>2026-03-28T18:14:55.319Z</time></trkpt><trkpt lat="40.6528583" lon="-3.3799283"><ele>712.0</ele><time>2026-03-28T18:14:56.318Z</time></trkpt><trkpt lat="40.6527783" lon="-3.3798217"><ele>712.0</ele><time>2026-03-28T18:14:57.319Z</time></trkpt><trkpt lat="40.65272" lon="-3.3797283"><ele>712.0</ele><time>2026-03-28T18:14:58.319Z</time></trkpt><trkpt lat="40.6526633" lon="-3.37965"><ele>712.0</ele><time>2026-03-28T18:14:59.319Z</time></trkpt><trkpt lat="40.652605" lon="-3.3795683"><ele>712.0</ele><time>2026-03-28T18:15:00.318Z</time></trkpt><trkpt lat="40.6525383" lon="-3.3794817"><ele>712.0</ele><time>2026-03-28T18:15:01.318Z</time></trkpt><trkpt lat="40.6524667" lon="-3.37939"><ele>712.0</ele><time>2026-03-28T18:15:02.319Z</time></trkpt><trkpt lat="40.6524067" lon="-3.3793"><ele>712.0</ele><time>2026-03-28T18:15:03.319Z</time></trkpt><trkpt lat="40.6523483" lon="-3.379205"><ele>712.0</ele><time>2026-03-28T18:15:04.318Z</time></trkpt><trkpt lat="40.6522967" lon="-3.37912"><ele>712.0</ele><time>2026-03-28T18:15:05.319Z</time></trkpt><trkpt lat="40.6522433" lon="-3.3790367"><ele>712.0</ele><time>2026-03-28T18:15:06.319Z</time></trkpt><trkpt lat="40.652175" lon="-3.37896"><ele>712.0</ele><time>2026-03-28T18:15:07.319Z</time></trkpt><trkpt lat="40.6520983" lon="-3.3788667"><ele>712.0</ele><time>2026-03-28T18:15:08.318Z</time></trkpt><trkpt lat="40.6520183" lon="-3.3787617"><ele>711.8</ele><time>2026-03-28T18:15:09.319Z</time></trkpt><trkpt lat="40.6519483" lon="-3.378655"><ele>711.6</ele><time>2026-03-28T18:15:10.319Z</time></trkpt><trkpt lat="40.651875" lon="-3.3785517"><ele>711.4</ele><time>2026-03-28T18:15:11.319Z</time></trkpt><trkpt lat="40.6518033" lon="-3.3784567"><ele>711.1999999999999</ele><time>2026-03-28T18:15:12.318Z</time></trkpt><trkpt lat="40.651725" lon="-3.3783467"><ele>711.0</ele><time>2026-03-28T18:15:13.319Z</time></trkpt><trkpt lat="40.6516533" lon="-3.37825"><ele>711.0</ele><time>2026-03-28T18:15:14.319Z</time></trkpt><trkpt lat="40.65158" lon="-3.378155"><ele>711.0</ele><time>2026-03-28T18:15:15.319Z</time></trkpt><trkpt lat="40.6515017" lon="-3.3780533"><ele>711.0</ele><time>2026-03-28T18:15:16.318Z</time></trkpt><trkpt lat="40.6514233" lon="-3.37795"><ele>711.0</ele><time>2026-03-28T18:15:17.318Z</time></trkpt><trkpt lat="40.65133" lon="-3.3778183"><ele>710.3333333333334</ele><time>2026-03-28T18:15:18.318Z</time></trkpt><trkpt lat="40.6512167" lon="-3.3776567"><ele>709.6666666666667</ele><time>2026-03-28T18:15:19.319Z</time></trkpt><trkpt lat="40.6511017" lon="-3.3774983"><ele>709.0</ele><time>2026-03-28T18:15:20.319Z</time></trkpt><trkpt lat="40.6509917" lon="-3.3773533"><ele>708.75</ele><time>2026-03-28T18:15:21.319Z</time></trkpt><trkpt lat="40.6508983" lon="-3.3772183"><ele>708.5</ele><time>2026-03-28T18:15:22.319Z</time></trkpt><trkpt lat="40.650815" lon="-3.3771"><ele>708.25</ele><time>2026-03-28T18:15:23.319Z</time></trkpt><trkpt lat="40.650735" lon="-3.3769967"><ele>708.0</ele><time>2026-03-28T18:15:24.319Z</time></trkpt><trkpt lat="40.65066" lon="-3.3768967"><ele>708.0</ele><time>2026-03-28T18:15:25.319Z</time></trkpt><trkpt lat="40.6505867" lon="-3.3768033"><ele>708.0</ele><time>2026-03-28T18:15:26.318Z</time></trkpt><trkpt lat="40.650515" lon="-3.3767083"><ele>708.0</ele><time>2026-03-28T18:15:27.319Z</time></trkpt><trkpt lat="40.6504417" lon="-3.3766083"><ele>708.0</ele><time>2026-03-28T18:15:28.318Z</time></trkpt><trkpt lat="40.65035" lon="-3.37648"><ele>708.0</ele><time>2026-03-28T18:15:29.319Z</time></trkpt><trkpt lat="40.6502617" lon="-3.376345"><ele>708.25</ele><time>2026-03-28T18:15:30.319Z</time></trkpt><trkpt lat="40.6501733" lon="-3.3762367"><ele>708.5</ele><time>2026-03-28T18:15:31.319Z</time></trkpt><trkpt lat="40.6500867" lon="-3.3761217"><ele>708.75</ele><time>2026-03-28T18:15:32.318Z</time></trkpt><trkpt lat="40.65" lon="-3.3760033"><ele>709.0</ele><time>2026-03-28T18:15:33.319Z</time></trkpt><trkpt lat="40.6499183" lon="-3.3758883"><ele>709.0</ele><time>2026-03-28T18:15:34.318Z</time></trkpt><trkpt lat="40.649835" lon="-3.3757733"><ele>709.0</ele><time>2026-03-28T18:15:35.319Z</time></trkpt><trkpt lat="40.6497583" lon="-3.3756567"><ele>709.0</ele><time>2026-03-28T18:15:36.319Z</time></trkpt><trkpt lat="40.64968" lon="-3.3755317"><ele>709.0</ele><time>2026-03-28T18:15:37.319Z</time></trkpt><trkpt lat="40.6496083" lon="-3.3754117"><ele>708.25</ele><time>2026-03-28T18:15:38.319Z</time></trkpt><trkpt lat="40.64954" lon="-3.3752933"><ele>707.5</ele><time>2026-03-28T18:15:39.319Z</time></trkpt><trkpt lat="40.6494717" lon="-3.37516"><ele>706.75</ele><time>2026-03-28T18:15:40.318Z</time></trkpt><trkpt lat="40.649405" lon="-3.3750317"><ele>706.0</ele><time>2026-03-28T18:15:41.319Z</time></trkpt><trkpt lat="40.6493367" lon="-3.37489"><ele>705.5999999999999</ele><time>2026-03-28T18:15:42.319Z</time></trkpt><trkpt lat="40.6492717" lon="-3.374745"><ele>705.2</ele><time>2026-03-28T18:15:43.319Z</time></trkpt><trkpt lat="40.6492117" lon="-3.37462"><ele>704.8</ele><time>2026-03-28T18:15:44.319Z</time></trkpt><trkpt lat="40.6491567" lon="-3.3745083"><ele>704.4000000000001</ele><time>2026-03-28T18:15:45.319Z</time></trkpt><trkpt lat="40.6491067" lon="-3.3744217"><ele>704.0</ele><time>2026-03-28T18:15:46.318Z</time></trkpt><trkpt lat="40.6490733" lon="-3.374345"><ele>703.0</ele><time>2026-03-28T18:15:47.319Z</time></trkpt><trkpt lat="40.64902" lon="-3.3742083"><ele>702.0</ele><time>2026-03-28T18:15:49.318Z</time></trkpt><trkpt lat="40.6489733" lon="-3.374095"><ele>701.0</ele><time>2026-03-28T18:15:51.319Z</time></trkpt><trkpt lat="40.6489117" lon="-3.3740067"><ele>700.0</ele><time>2026-03-28T18:15:53.318Z</time></trkpt><trkpt lat="40.6488233" lon="-3.3739067"><ele>699.0</ele><time>2026-03-28T18:15:55.318Z</time></trkpt><trkpt lat="40.6487667" lon="-3.3738583"><ele>698.8333333333334</ele><time>2026-03-28T18:15:56.318Z</time></trkpt><trkpt lat="40.6487" lon="-3.37382"><ele>698.6666666666666</ele><time>2026-03-28T18:15:57.319Z</time></trkpt><trkpt lat="40.6486233" lon="-3.37378"><ele>698.5</ele><time>2026-03-28T18:15:58.319Z</time></trkpt><trkpt lat="40.6485483" lon="-3.3737517"><ele>698.3333333333333</ele><time>2026-03-28T18:15:59.318Z</time></trkpt><trkpt lat="40.6484867" lon="-3.3737233"><ele>698.1666666666666</ele><time>2026-03-28T18:16:00.318Z</time></trkpt><trkpt lat="40.64837" lon="-3.3736717"><ele>698.0</ele><time>2026-03-28T18:16:02.318Z</time></trkpt><trkpt lat="40.6483033" lon="-3.37362"><ele>697.0</ele><time>2026-03-28T18:16:04.319Z</time></trkpt><trkpt lat="40.6482417" lon="-3.3735283"><ele>696.0</ele><time>2026-03-28T18:16:07.319Z</time></trkpt><trkpt lat="40.648195" lon="-3.3734583"><ele>695.0</ele><time>2026-03-28T18:16:09.319Z</time></trkpt><trkpt lat="40.6481383" lon="-3.373405"><ele>694.0</ele><time>2026-03-28T18:16:11.319Z</time></trkpt><trkpt lat="40.6480217" lon="-3.3733683"><ele>693.0</ele><time>2026-03-28T18:16:13.318Z</time></trkpt><trkpt lat="40.6479517" lon="-3.373375"><ele>692.0</ele><time>2026-03-28T18:16:14.319Z</time></trkpt><trkpt lat="40.647885" lon="-3.3733833"><ele>692.0</ele><time>2026-03-28T18:16:15.319Z</time></trkpt><trkpt lat="40.64782" lon="-3.3734067"><ele>692.0</ele><time>2026-03-28T18:16:16.319Z</time></trkpt><trkpt lat="40.6477567" lon="-3.373415"><ele>692.0</ele><time>2026-03-28T18:16:17.319Z</time></trkpt><trkpt lat="40.6476367" lon="-3.373425"><ele>692.0</ele><time>2026-03-28T18:16:19.319Z</time></trkpt><trkpt lat="40.6475267" lon="-3.373425"><ele>692.0</ele><time>2026-03-28T18:16:21.319Z</time></trkpt><trkpt lat="40.6474167" lon="-3.3734217"><ele>691.3333333333333</ele><time>2026-03-28T18:16:23.319Z</time></trkpt><trkpt lat="40.6473117" lon="-3.3734017"><ele>690.6666666666666</ele><time>2026-03-28T18:16:25.318Z</time></trkpt><trkpt lat="40.6472233" lon="-3.3733883"><ele>690.0</ele><time>2026-03-28T18:16:27.319Z</time></trkpt><trkpt lat="40.6471467" lon="-3.373405"><ele>689.3333333333334</ele><time>2026-03-28T18:16:30.318Z</time></trkpt><trkpt lat="40.647075" lon="-3.3734133"><ele>688.6666666666667</ele><time>2026-03-28T18:16:33.318Z</time></trkpt><trkpt lat="40.64704" lon="-3.3733383"><ele>688.0</ele><time>2026-03-28T18:16:36.319Z</time></trkpt><trkpt lat="40.647085" lon="-3.37324"><ele>688.0</ele><time>2026-03-28T18:16:41.319Z</time></trkpt><trkpt lat="40.6471367" lon="-3.3731517"><ele>688.0</ele><time>2026-03-28T18:16:44.318Z</time></trkpt><trkpt lat="40.6472083" lon="-3.3730883"><ele>688.0</ele><time>2026-03-28T18:16:47.319Z</time></trkpt><trkpt lat="40.6472983" lon="-3.37306"><ele>688.0</ele><time>2026-03-28T18:16:49.319Z</time></trkpt><trkpt lat="40.6473983" lon="-3.3730183"><ele>688.0</ele><time>2026-03-28T18:16:51.318Z</time></trkpt><trkpt lat="40.6474917" lon="-3.3729633"><ele>688.0</ele><time>2026-03-28T18:16:53.319Z</time></trkpt><trkpt lat="40.6475617" lon="-3.3729083"><ele>688.0</ele><time>2026-03-28T18:16:55.319Z</time></trkpt><trkpt lat="40.6476033" lon="-3.372815"><ele>688.0</ele><time>2026-03-28T18:16:57.318Z</time></trkpt><trkpt lat="40.6476" lon="-3.3726533"><ele>688.0</ele><time>2026-03-28T18:16:59.318Z</time></trkpt><trkpt lat="40.64757" lon="-3.3725667"><ele>688.0</ele><time>2026-03-28T18:17:00.319Z</time></trkpt><trkpt lat="40.6475317" lon="-3.3724917"><ele>688.0</ele><time>2026-03-28T18:17:01.319Z</time></trkpt><trkpt lat="40.647445" lon="-3.3723817"><ele>688.0</ele><time>2026-03-28T18:17:03.319Z</time></trkpt><trkpt lat="40.6473883" lon="-3.372325"><ele>688.0</ele><time>2026-03-28T18:17:04.318Z</time></trkpt><trkpt lat="40.6473133" lon="-3.37226"><ele>688.0</ele><time>2026-03-28T18:17:05.318Z</time></trkpt><trkpt lat="40.6472167" lon="-3.3721717"><ele>688.0</ele><time>2026-03-28T18:17:06.319Z</time></trkpt><trkpt lat="40.6471233" lon="-3.3720883"><ele>688.0</ele><time>2026-03-28T18:17:07.318Z</time></trkpt><trkpt lat="40.647045" lon="-3.37201"><ele>688.0</ele><time>2026-03-28T18:17:08.319Z</time></trkpt><trkpt lat="40.6469583" lon="-3.37193"><ele>688.0</ele><time>2026-03-28T18:17:09.319Z</time></trkpt><trkpt lat="40.6468733" lon="-3.3718433"><ele>688.0</ele><time>2026-03-28T18:17:10.318Z</time></trkpt><trkpt lat="40.6468017" lon="-3.3717617"><ele>688.0</ele><time>2026-03-28T18:17:11.319Z</time></trkpt><trkpt lat="40.6467217" lon="-3.3716617"><ele>688.0</ele><time>2026-03-28T18:17:12.319Z</time></trkpt><trkpt lat="40.6466367" lon="-3.3715533"><ele>688.0</ele><time>2026-03-28T18:17:13.319Z</time></trkpt><trkpt lat="40.6465667" lon="-3.371445"><ele>688.0</ele><time>2026-03-28T18:17:14.319Z</time></trkpt><trkpt lat="40.6465017" lon="-3.3713467"><ele>688.0</ele><time>2026-03-28T18:17:15.319Z</time></trkpt><trkpt lat="40.6464383" lon="-3.371255"><ele>688.0</ele><time>2026-03-28T18:17:16.319Z</time></trkpt><trkpt lat="40.6463817" lon="-3.37118"><ele>688.0</ele><time>2026-03-28T18:17:17.319Z</time></trkpt><trkpt lat="40.6463333" lon="-3.37111"><ele>688.0</ele><time>2026-03-28T18:17:18.319Z</time></trkpt><trkpt lat="40.6462717" lon="-3.371"><ele>688.0</ele><time>2026-03-28T18:17:20.318Z</time></trkpt><trkpt lat="40.64626" lon="-3.3708717"><ele>688.0</ele><time>2026-03-28T18:17:22.319Z</time></trkpt><trkpt lat="40.6462867" lon="-3.3706983"><ele>688.0</ele><time>2026-03-28T18:17:24.318Z</time></trkpt><trkpt lat="40.646315" lon="-3.37058"><ele>688.0</ele><time>2026-03-28T18:17:25.319Z</time></trkpt><trkpt lat="40.6463517" lon="-3.3704617"><ele>688.0</ele><time>2026-03-28T18:17:26.319Z</time></trkpt><trkpt lat="40.6463817" lon="-3.37035"><ele>688.0</ele><time>2026-03-28T18:17:27.319Z</time></trkpt><trkpt lat="40.646415" lon="-3.3702383"><ele>688.0</ele><time>2026-03-28T18:17:28.318Z</time></trkpt><trkpt lat="40.646455" lon="-3.3701417"><ele>688.0</ele><time>2026-03-28T18:17:29.319Z</time></trkpt><trkpt lat="40.6464883" lon="-3.370065"><ele>688.0</ele><time>2026-03-28T18:17:30.319Z</time></trkpt><trkpt lat="40.6465233" lon="-3.3699917"><ele>688.0</ele><time>2026-03-28T18:17:31.319Z</time></trkpt><trkpt lat="40.6465467" lon="-3.3699067"><ele>688.0</ele><time>2026-03-28T18:17:32.318Z</time></trkpt><trkpt lat="40.6465667" lon="-3.3698167"><ele>688.0</ele><time>2026-03-28T18:17:33.319Z</time></trkpt><trkpt lat="40.6465883" lon="-3.3697217"><ele>688.0</ele><time>2026-03-28T18:17:34.318Z</time></trkpt><trkpt lat="40.6466017" lon="-3.36962"><ele>688.0</ele><time>2026-03-28T18:17:35.319Z</time></trkpt><trkpt lat="40.6466217" lon="-3.3695083"><ele>688.0</ele><time>2026-03-28T18:17:36.319Z</time></trkpt><trkpt lat="40.6466417" lon="-3.3693983"><ele>688.0</ele><time>2026-03-28T18:17:37.319Z</time></trkpt><trkpt lat="40.646665" lon="-3.3692933"><ele>688.4</ele><time>2026-03-28T18:17:38.319Z</time></trkpt><trkpt lat="40.6467" lon="-3.3691567"><ele>688.8</ele><time>2026-03-28T18:17:39.318Z</time></trkpt><trkpt lat="40.6467467" lon="-3.3690083"><ele>689.2</ele><time>2026-03-28T18:17:40.319Z</time></trkpt><trkpt lat="40.6467883" lon="-3.3688667"><ele>689.6</ele><time>2026-03-28T18:17:41.319Z</time></trkpt><trkpt lat="40.64682" lon="-3.3687467"><ele>690.0</ele><time>2026-03-28T18:17:42.319Z</time></trkpt><trkpt lat="40.646855" lon="-3.3686317"><ele>689.8</ele><time>2026-03-28T18:17:43.318Z</time></trkpt><trkpt lat="40.6468983" lon="-3.368515"><ele>689.6</ele><time>2026-03-28T18:17:44.319Z</time></trkpt><trkpt lat="40.64694" lon="-3.3683933"><ele>689.4000000000001</ele><time>2026-03-28T18:17:45.318Z</time></trkpt><trkpt lat="40.6469817" lon="-3.3682617"><ele>689.2</ele><time>2026-03-28T18:17:46.318Z</time></trkpt><trkpt lat="40.64702" lon="-3.3681083"><ele>689.0</ele><time>2026-03-28T18:17:47.319Z</time></trkpt><trkpt lat="40.6470533" lon="-3.3679367"><ele>689.0</ele><time>2026-03-28T18:17:48.319Z</time></trkpt><trkpt lat="40.6470833" lon="-3.3677533"><ele>689.0</ele><time>2026-03-28T18:17:49.319Z</time></trkpt><trkpt lat="40.6471083" lon="-3.3675917"><ele>689.0</ele><time>2026-03-28T18:17:50.319Z</time></trkpt><trkpt lat="40.6471283" lon="-3.3674717"><ele>689.0</ele><time>2026-03-28T18:17:51.319Z</time></trkpt><trkpt lat="40.6471417" lon="-3.3673767"><ele>689.0</ele><time>2026-03-28T18:17:52.319Z</time></trkpt><trkpt lat="40.64715" lon="-3.367285"><ele>690.1428571428571</ele><time>2026-03-28T18:17:53.319Z</time></trkpt><trkpt lat="40.6471417" lon="-3.3671933"><ele>691.2857142857143</ele><time>2026-03-28T18:17:54.318Z</time></trkpt><trkpt lat="40.6471283" lon="-3.367105"><ele>692.4285714285714</ele><time>2026-03-28T18:17:55.319Z</time></trkpt><trkpt lat="40.6471" lon="-3.3670233"><ele>693.5714285714286</ele><time>2026-03-28T18:17:56.319Z</time></trkpt><trkpt lat="40.6470617" lon="-3.3669567"><ele>694.7142857142857</ele><time>2026-03-28T18:17:57.319Z</time></trkpt><trkpt lat="40.64701" lon="-3.3668983"><ele>695.8571428571429</ele><time>2026-03-28T18:17:58.319Z</time></trkpt><trkpt lat="40.6469433" lon="-3.3668567"><ele>697.0</ele><time>2026-03-28T18:17:59.318Z</time></trkpt><trkpt lat="40.6468683" lon="-3.366815"><ele>698.6666666666667</ele><time>2026-03-28T18:18:00.318Z</time></trkpt><trkpt lat="40.6467883" lon="-3.3667717"><ele>700.3333333333334</ele><time>2026-03-28T18:18:01.318Z</time></trkpt><trkpt lat="40.646695" lon="-3.366735"><ele>702.0</ele><time>2026-03-28T18:18:02.319Z</time></trkpt><trkpt lat="40.64661" lon="-3.366695"><ele>703.6666666666666</ele><time>2026-03-28T18:18:03.319Z</time></trkpt><trkpt lat="40.6465317" lon="-3.3666533"><ele>705.3333333333333</ele><time>2026-03-28T18:18:04.318Z</time></trkpt><trkpt lat="40.6464567" lon="-3.3666067"><ele>707.0</ele><time>2026-03-28T18:18:05.319Z</time></trkpt><trkpt lat="40.6463833" lon="-3.366565"><ele>707.0</ele><time>2026-03-28T18:18:06.319Z</time></trkpt><trkpt lat="40.6463083" lon="-3.3665167"><ele>707.0</ele><time>2026-03-28T18:18:07.319Z</time></trkpt><trkpt lat="40.6462183" lon="-3.3664633"><ele>707.0</ele><time>2026-03-28T18:18:08.318Z</time></trkpt><trkpt lat="40.6461183" lon="-3.366405"><ele>707.0</ele><time>2026-03-28T18:18:09.319Z</time></trkpt><trkpt lat="40.6460233" lon="-3.3663533"><ele>707.0</ele><time>2026-03-28T18:18:10.318Z</time></trkpt><trkpt lat="40.6459367" lon="-3.3663"><ele>708.6</ele><time>2026-03-28T18:18:11.318Z</time></trkpt><trkpt lat="40.6458417" lon="-3.3662517"><ele>710.2</ele><time>2026-03-28T18:18:12.319Z</time></trkpt><trkpt lat="40.6457383" lon="-3.3662"><ele>711.8</ele><time>2026-03-28T18:18:13.319Z</time></trkpt><trkpt lat="40.6456317" lon="-3.36615"><ele>713.4</ele><time>2026-03-28T18:18:14.319Z</time></trkpt><trkpt lat="40.6455367" lon="-3.3660867"><ele>715.0</ele><time>2026-03-28T18:18:15.319Z</time></trkpt><trkpt lat="40.645435" lon="-3.366025"><ele>715.0</ele><time>2026-03-28T18:18:16.318Z</time></trkpt><trkpt lat="40.6453383" lon="-3.36597"><ele>715.0</ele><time>2026-03-28T18:18:17.319Z</time></trkpt><trkpt lat="40.645255" lon="-3.36592"><ele>715.0</ele><time>2026-03-28T18:18:18.319Z</time></trkpt><trkpt lat="40.645165" lon="-3.3658783"><ele>715.0</ele><time>2026-03-28T18:18:19.319Z</time></trkpt><trkpt lat="40.6450567" lon="-3.365825"><ele>715.0</ele><time>2026-03-28T18:18:20.319Z</time></trkpt><trkpt lat="40.644955" lon="-3.365775"><ele>716.4</ele><time>2026-03-28T18:18:21.318Z</time></trkpt><trkpt lat="40.644865" lon="-3.36573"><ele>717.8</ele><time>2026-03-28T18:18:22.319Z</time></trkpt><trkpt lat="40.6447717" lon="-3.36567"><ele>719.2</ele><time>2026-03-28T18:18:23.318Z</time></trkpt><trkpt lat="40.6446883" lon="-3.3656033"><ele>720.6</ele><time>2026-03-28T18:18:24.319Z</time></trkpt><trkpt lat="40.6446017" lon="-3.36553"><ele>722.0</ele><time>2026-03-28T18:18:25.318Z</time></trkpt><trkpt lat="40.6445133" lon="-3.36545"><ele>722.6</ele><time>2026-03-28T18:18:26.319Z</time></trkpt><trkpt lat="40.64444" lon="-3.3653817"><ele>723.2</ele><time>2026-03-28T18:18:27.319Z</time></trkpt><trkpt lat="40.644375" lon="-3.3653083"><ele>723.8</ele><time>2026-03-28T18:18:28.319Z</time></trkpt><trkpt lat="40.644305" lon="-3.3652233"><ele>724.4</ele><time>2026-03-28T18:18:29.319Z</time></trkpt><trkpt lat="40.644235" lon="-3.365135"><ele>725.0</ele><time>2026-03-28T18:18:30.319Z</time></trkpt><trkpt lat="40.6441683" lon="-3.3650317"><ele>725.0</ele><time>2026-03-28T18:18:31.319Z</time></trkpt><trkpt lat="40.644105" lon="-3.364935"><ele>725.0</ele><time>2026-03-28T18:18:32.319Z</time></trkpt><trkpt lat="40.6440367" lon="-3.364835"><ele>725.0</ele><time>2026-03-28T18:18:33.319Z</time></trkpt><trkpt lat="40.6439783" lon="-3.3647333"><ele>725.0</ele><time>2026-03-28T18:18:34.319Z</time></trkpt><trkpt lat="40.6439333" lon="-3.3646483"><ele>725.0</ele><time>2026-03-28T18:18:35.319Z</time></trkpt><trkpt lat="40.6438933" lon="-3.3645583"><ele>726.0</ele><time>2026-03-28T18:18:36.318Z</time></trkpt><trkpt lat="40.6438517" lon="-3.3644617"><ele>727.0</ele><time>2026-03-28T18:18:37.319Z</time></trkpt><trkpt lat="40.643815" lon="-3.3643533"><ele>728.0</ele><time>2026-03-28T18:18:38.319Z</time></trkpt><trkpt lat="40.64378" lon="-3.3642217"><ele>729.0</ele><time>2026-03-28T18:18:39.319Z</time></trkpt><trkpt lat="40.6437317" lon="-3.3640717"><ele>730.0</ele><time>2026-03-28T18:18:40.319Z</time></trkpt><trkpt lat="40.643675" lon="-3.3639133"><ele>731.4</ele><time>2026-03-28T18:18:41.318Z</time></trkpt><trkpt lat="40.643615" lon="-3.3637567"><ele>732.8</ele><time>2026-03-28T18:18:42.319Z</time></trkpt><trkpt lat="40.6435717" lon="-3.3636133"><ele>734.2</ele><time>2026-03-28T18:18:43.318Z</time></trkpt><trkpt lat="40.643535" lon="-3.3634933"><ele>735.6</ele><time>2026-03-28T18:18:44.319Z</time></trkpt><trkpt lat="40.6434917" lon="-3.3633933"><ele>737.0</ele><time>2026-03-28T18:18:45.319Z</time></trkpt><trkpt lat="40.6434333" lon="-3.3633133"><ele>737.0</ele><time>2026-03-28T18:18:46.319Z</time></trkpt><trkpt lat="40.6433583" lon="-3.3632467"><ele>737.0</ele><time>2026-03-28T18:18:47.319Z</time></trkpt><trkpt lat="40.64327" lon="-3.363165"><ele>737.0</ele><time>2026-03-28T18:18:48.319Z</time></trkpt><trkpt lat="40.643175" lon="-3.3630783"><ele>737.0</ele><time>2026-03-28T18:18:49.318Z</time></trkpt><trkpt lat="40.643075" lon="-3.363005"><ele>737.0</ele><time>2026-03-28T18:18:50.319Z</time></trkpt><trkpt lat="40.6429883" lon="-3.36294"><ele>736.8</ele><time>2026-03-28T18:18:51.319Z</time></trkpt><trkpt lat="40.642895" lon="-3.3628817"><ele>736.6</ele><time>2026-03-28T18:18:52.319Z</time></trkpt><trkpt lat="40.6427933" lon="-3.3628317"><ele>736.4</ele><time>2026-03-28T18:18:53.319Z</time></trkpt><trkpt lat="40.6426933" lon="-3.362795"><ele>736.1999999999999</ele><time>2026-03-28T18:18:54.319Z</time></trkpt><trkpt lat="40.6425917" lon="-3.3627467"><ele>736.0</ele><time>2026-03-28T18:18:55.318Z</time></trkpt><trkpt lat="40.64248" lon="-3.3626967"><ele>738.0</ele><time>2026-03-28T18:18:56.318Z</time></trkpt><trkpt lat="40.642375" lon="-3.362655"><ele>740.0</ele><time>2026-03-28T18:18:57.318Z</time></trkpt><trkpt lat="40.64227" lon="-3.3626217"><ele>742.0</ele><time>2026-03-28T18:18:58.319Z</time></trkpt><trkpt lat="40.6421517" lon="-3.3625833"><ele>744.0</ele><time>2026-03-28T18:18:59.319Z</time></trkpt><trkpt lat="40.6420433" lon="-3.3625483"><ele>745.6</ele><time>2026-03-28T18:19:00.319Z</time></trkpt><trkpt lat="40.641945" lon="-3.3625167"><ele>747.2</ele><time>2026-03-28T18:19:01.318Z</time></trkpt><trkpt lat="40.6418533" lon="-3.3624883"><ele>748.8000000000001</ele><time>2026-03-28T18:19:02.319Z</time></trkpt><trkpt lat="40.6417517" lon="-3.362455"><ele>750.4000000000001</ele><time>2026-03-28T18:19:03.318Z</time></trkpt><trkpt lat="40.6416483" lon="-3.3624267"><ele>752.0</ele><time>2026-03-28T18:19:04.319Z</time></trkpt><trkpt lat="40.6415433" lon="-3.3623817"><ele>752.0</ele><time>2026-03-28T18:19:05.319Z</time></trkpt><trkpt lat="40.641455" lon="-3.36233"><ele>752.0</ele><time>2026-03-28T18:19:06.318Z</time></trkpt><trkpt lat="40.6413633" lon="-3.3622767"><ele>752.0</ele><time>2026-03-28T18:19:07.319Z</time></trkpt><trkpt lat="40.641285" lon="-3.3622217"><ele>752.0</ele><time>2026-03-28T18:19:08.319Z</time></trkpt><trkpt lat="40.6412117" lon="-3.3621617"><ele>752.0</ele><time>2026-03-28T18:19:09.319Z</time></trkpt><trkpt lat="40.6411483" lon="-3.3621167"><ele>752.0</ele><time>2026-03-28T18:19:10.318Z</time></trkpt><trkpt lat="40.6410767" lon="-3.3620833"><ele>753.3333333333333</ele><time>2026-03-28T18:19:11.318Z</time></trkpt><trkpt lat="40.6409883" lon="-3.3620633"><ele>754.6666666666666</ele><time>2026-03-28T18:19:12.319Z</time></trkpt><trkpt lat="40.640905" lon="-3.3620433"><ele>756.0</ele><time>2026-03-28T18:19:13.319Z</time></trkpt><trkpt lat="40.640825" lon="-3.3620233"><ele>757.3333333333334</ele><time>2026-03-28T18:19:14.319Z</time></trkpt><trkpt lat="40.64075" lon="-3.362005"><ele>758.6666666666667</ele><time>2026-03-28T18:19:15.319Z</time></trkpt><trkpt lat="40.640675" lon="-3.3620017"><ele>760.0</ele><time>2026-03-28T18:19:16.319Z</time></trkpt><trkpt lat="40.6406" lon="-3.3620033"><ele>760.0</ele><time>2026-03-28T18:19:17.318Z</time></trkpt><trkpt lat="40.640535" lon="-3.3620033"><ele>760.0</ele><time>2026-03-28T18:19:18.319Z</time></trkpt><trkpt lat="40.6404267" lon="-3.361945"><ele>760.0</ele><time>2026-03-28T18:19:20.319Z</time></trkpt><trkpt lat="40.640345" lon="-3.361795"><ele>760.0</ele><time>2026-03-28T18:19:22.32Z</time></trkpt><trkpt lat="40.6403017" lon="-3.3616617"><ele>760.0</ele><time>2026-03-28T18:19:23.32Z</time></trkpt><trkpt lat="40.64026" lon="-3.3615117"><ele>762.0</ele><time>2026-03-28T18:19:24.32Z</time></trkpt><trkpt lat="40.640225" lon="-3.3614017"><ele>764.0</ele><time>2026-03-28T18:19:25.32Z</time></trkpt><trkpt lat="40.6401867" lon="-3.3613"><ele>766.0</ele><time>2026-03-28T18:19:26.319Z</time></trkpt><trkpt lat="40.64013" lon="-3.3612"><ele>768.0</ele><time>2026-03-28T18:19:27.32Z</time></trkpt><trkpt lat="40.6400567" lon="-3.3610933"><ele>770.0</ele><time>2026-03-28T18:19:28.32Z</time></trkpt><trkpt lat="40.6399733" lon="-3.36097"><ele>770.25</ele><time>2026-03-28T18:19:29.32Z</time></trkpt><trkpt lat="40.6398783" lon="-3.3608367"><ele>770.5</ele><time>2026-03-28T18:19:30.319Z</time></trkpt><trkpt lat="40.6397933" lon="-3.3607267"><ele>770.75</ele><time>2026-03-28T18:19:31.32Z</time></trkpt><trkpt lat="40.63972" lon="-3.36065"><ele>771.0</ele><time>2026-03-28T18:19:32.319Z</time></trkpt><trkpt lat="40.6396383" lon="-3.36056"><ele>771.4</ele><time>2026-03-28T18:19:33.32Z</time></trkpt><trkpt lat="40.6395567" lon="-3.3604717"><ele>771.8</ele><time>2026-03-28T18:19:34.32Z</time></trkpt><trkpt lat="40.6394717" lon="-3.3603883"><ele>772.1999999999999</ele><time>2026-03-28T18:19:35.32Z</time></trkpt><trkpt lat="40.639395" lon="-3.3603083"><ele>772.5999999999999</ele><time>2026-03-28T18:19:36.32Z</time></trkpt><trkpt lat="40.6393167" lon="-3.36022"><ele>773.0</ele><time>2026-03-28T18:19:37.32Z</time></trkpt><trkpt lat="40.639235" lon="-3.3601183"><ele>772.25</ele><time>2026-03-28T18:19:38.319Z</time></trkpt><trkpt lat="40.63916" lon="-3.3600033"><ele>771.5</ele><time>2026-03-28T18:19:39.319Z</time></trkpt><trkpt lat="40.6390833" lon="-3.3598767"><ele>770.75</ele><time>2026-03-28T18:19:40.32Z</time></trkpt><trkpt lat="40.6390033" lon="-3.3597417"><ele>770.0</ele><time>2026-03-28T18:19:41.32Z</time></trkpt><trkpt lat="40.6389267" lon="-3.3595783"><ele>770.0</ele><time>2026-03-28T18:19:42.32Z</time></trkpt><trkpt lat="40.6388367" lon="-3.3593967"><ele>770.0</ele><time>2026-03-28T18:19:43.32Z</time></trkpt><trkpt lat="40.6387367" lon="-3.35922"><ele>770.0</ele><time>2026-03-28T18:19:44.319Z</time></trkpt><trkpt lat="40.6386517" lon="-3.359055"><ele>768.5</ele><time>2026-03-28T18:19:45.32Z</time></trkpt><trkpt lat="40.6385767" lon="-3.3589083"><ele>767.0</ele><time>2026-03-28T18:19:46.32Z</time></trkpt><trkpt lat="40.6385067" lon="-3.3587733"><ele>765.5</ele><time>2026-03-28T18:19:47.32Z</time></trkpt><trkpt lat="40.6384483" lon="-3.358645"><ele>764.0</ele><time>2026-03-28T18:19:48.32Z</time></trkpt><trkpt lat="40.6383917" lon="-3.3585333"><ele>764.0</ele><time>2026-03-28T18:19:49.319Z</time></trkpt><trkpt lat="40.6383333" lon="-3.3584333"><ele>764.0</ele><time>2026-03-28T18:19:50.32Z</time></trkpt><trkpt lat="40.6382683" lon="-3.358335"><ele>764.0</ele><time>2026-03-28T18:19:51.32Z</time></trkpt><trkpt lat="40.63822" lon="-3.3582467"><ele>764.0</ele><time>2026-03-28T18:19:52.319Z</time></trkpt><trkpt lat="40.6381817" lon="-3.3581567"><ele>764.0</ele><time>2026-03-28T18:19:53.32Z</time></trkpt><trkpt lat="40.6381483" lon="-3.3580767"><ele>764.0</ele><time>2026-03-28T18:19:54.32Z</time></trkpt><trkpt lat="40.6381167" lon="-3.3579933"><ele>763.8333333333333</ele><time>2026-03-28T18:19:55.32Z</time></trkpt><trkpt lat="40.6380917" lon="-3.3579133"><ele>763.6666666666666</ele><time>2026-03-28T18:19:56.32Z</time></trkpt><trkpt lat="40.6380633" lon="-3.357825"><ele>763.5</ele><time>2026-03-28T18:19:57.32Z</time></trkpt><trkpt lat="40.6380433" lon="-3.357735"><ele>763.3333333333334</ele><time>2026-03-28T18:19:58.32Z</time></trkpt><trkpt lat="40.63801" lon="-3.3576133"><ele>763.1666666666667</ele><time>2026-03-28T18:20:00.32Z</time></trkpt><trkpt lat="40.6379883" lon="-3.3575233"><ele>763.0</ele><time>2026-03-28T18:20:02.319Z</time></trkpt><trkpt lat="40.6379617" lon="-3.3574217"><ele>763.0</ele><time>2026-03-28T18:20:04.319Z</time></trkpt><trkpt lat="40.63793" lon="-3.3572867"><ele>763.0</ele><time>2026-03-28T18:20:06.32Z</time></trkpt><trkpt lat="40.6379083" lon="-3.3572033"><ele>763.0</ele><time>2026-03-28T18:20:07.32Z</time></trkpt><trkpt lat="40.6378683" lon="-3.3570967"><ele>763.0</ele><time>2026-03-28T18:20:08.319Z</time></trkpt><trkpt lat="40.6378317" lon="-3.356975"><ele>763.0</ele><time>2026-03-28T18:20:09.32Z</time></trkpt><trkpt lat="40.6378" lon="-3.3568517"><ele>760.8</ele><time>2026-03-28T18:20:10.319Z</time></trkpt><trkpt lat="40.63777" lon="-3.3567433"><ele>758.5999999999999</ele><time>2026-03-28T18:20:11.319Z</time></trkpt><trkpt lat="40.63774" lon="-3.35663"><ele>756.4000000000001</ele><time>2026-03-28T18:20:12.319Z</time></trkpt><trkpt lat="40.63771" lon="-3.3565117"><ele>754.2</ele><time>2026-03-28T18:20:13.32Z</time></trkpt><trkpt lat="40.6376833" lon="-3.356385"><ele>752.0</ele><time>2026-03-28T18:20:14.32Z</time></trkpt><trkpt lat="40.6376583" lon="-3.35626"><ele>751.5</ele><time>2026-03-28T18:20:15.32Z</time></trkpt><trkpt lat="40.6376367" lon="-3.3561483"><ele>751.0</ele><time>2026-03-28T18:20:16.32Z</time></trkpt><trkpt lat="40.6376183" lon="-3.3560333"><ele>750.5</ele><time>2026-03-28T18:20:17.32Z</time></trkpt><trkpt lat="40.6376017" lon="-3.3559183"><ele>750.0</ele><time>2026-03-28T18:20:18.319Z</time></trkpt><trkpt lat="40.6375817" lon="-3.3558133"><ele>749.5</ele><time>2026-03-28T18:20:19.319Z</time></trkpt><trkpt lat="40.637565" lon="-3.3557067"><ele>749.0</ele><time>2026-03-28T18:20:20.32Z</time></trkpt><trkpt lat="40.63755" lon="-3.3556017"><ele>749.2</ele><time>2026-03-28T18:20:21.32Z</time></trkpt><trkpt lat="40.6375283" lon="-3.35551"><ele>749.4000000000001</ele><time>2026-03-28T18:20:22.32Z</time></trkpt><trkpt lat="40.63751" lon="-3.3554283"><ele>749.6</ele><time>2026-03-28T18:20:23.319Z</time></trkpt><trkpt lat="40.63747" lon="-3.3552833"><ele>749.8</ele><time>2026-03-28T18:20:25.32Z</time></trkpt><trkpt lat="40.6374517" lon="-3.3551583"><ele>750.0</ele><time>2026-03-28T18:20:27.32Z</time></trkpt><trkpt lat="40.6374633" lon="-3.3549983"><ele>750.0</ele><time>2026-03-28T18:20:29.32Z</time></trkpt><trkpt lat="40.63746" lon="-3.3548833"><ele>750.0</ele><time>2026-03-28T18:20:30.319Z</time></trkpt><trkpt lat="40.6374533" lon="-3.3547267"><ele>750.0</ele><time>2026-03-28T18:20:31.319Z</time></trkpt><trkpt lat="40.6374433" lon="-3.3545417"><ele>750.0</ele><time>2026-03-28T18:20:32.32Z</time></trkpt><trkpt lat="40.6374267" lon="-3.3543717"><ele>750.0</ele><time>2026-03-28T18:20:33.32Z</time></trkpt><trkpt lat="40.6374" lon="-3.35421"><ele>750.0</ele><time>2026-03-28T18:20:34.319Z</time></trkpt><trkpt lat="40.637365" lon="-3.3540617"><ele>750.0</ele><time>2026-03-28T18:20:35.319Z</time></trkpt><trkpt lat="40.6373167" lon="-3.35388"><ele>750.0</ele><time>2026-03-28T18:20:36.32Z</time></trkpt><trkpt lat="40.63726" lon="-3.3536867"><ele>749.5</ele><time>2026-03-28T18:20:37.32Z</time></trkpt><trkpt lat="40.6372067" lon="-3.353515"><ele>749.0</ele><time>2026-03-28T18:20:38.319Z</time></trkpt><trkpt lat="40.6371583" lon="-3.35334"><ele>748.5</ele><time>2026-03-28T18:20:39.32Z</time></trkpt><trkpt lat="40.6371117" lon="-3.3531917"><ele>748.0</ele><time>2026-03-28T18:20:40.319Z</time></trkpt><trkpt lat="40.6370767" lon="-3.353075"><ele>748.0</ele><time>2026-03-28T18:20:41.32Z</time></trkpt><trkpt lat="40.6370433" lon="-3.3529733"><ele>748.0</ele><time>2026-03-28T18:20:42.32Z</time></trkpt><trkpt lat="40.6370033" lon="-3.3528717"><ele>748.0</ele><time>2026-03-28T18:20:43.319Z</time></trkpt><trkpt lat="40.6369717" lon="-3.3527717"><ele>748.0</ele><time>2026-03-28T18:20:44.32Z</time></trkpt><trkpt lat="40.63694" lon="-3.3526633"><ele>748.0</ele><time>2026-03-28T18:20:45.32Z</time></trkpt><trkpt lat="40.6369017" lon="-3.35256"><ele>748.0</ele><time>2026-03-28T18:20:46.32Z</time></trkpt><trkpt lat="40.6368567" lon="-3.3524517"><ele>748.4</ele><time>2026-03-28T18:20:47.32Z</time></trkpt><trkpt lat="40.6368133" lon="-3.3523583"><ele>748.8</ele><time>2026-03-28T18:20:48.32Z</time></trkpt><trkpt lat="40.636765" lon="-3.3522567"><ele>749.2</ele><time>2026-03-28T18:20:49.32Z</time></trkpt><trkpt lat="40.636715" lon="-3.3521433"><ele>749.6</ele><time>2026-03-28T18:20:50.32Z</time></trkpt><trkpt lat="40.6366533" lon="-3.35202"><ele>750.0</ele><time>2026-03-28T18:20:51.32Z</time></trkpt><trkpt lat="40.6366017" lon="-3.3519133"><ele>749.3333333333334</ele><time>2026-03-28T18:20:52.32Z</time></trkpt><trkpt lat="40.6365533" lon="-3.3518233"><ele>748.6666666666666</ele><time>2026-03-28T18:20:53.32Z</time></trkpt><trkpt lat="40.636505" lon="-3.3517467"><ele>748.0</ele><time>2026-03-28T18:20:54.32Z</time></trkpt><trkpt lat="40.6364533" lon="-3.3516667"><ele>747.3333333333333</ele><time>2026-03-28T18:20:55.32Z</time></trkpt><trkpt lat="40.6364133" lon="-3.3515883"><ele>746.6666666666666</ele><time>2026-03-28T18:20:56.319Z</time></trkpt><trkpt lat="40.6363683" lon="-3.3515017"><ele>746.0</ele><time>2026-03-28T18:20:57.32Z</time></trkpt><trkpt lat="40.6363133" lon="-3.3514083"><ele>745.1666666666666</ele><time>2026-03-28T18:20:58.32Z</time></trkpt><trkpt lat="40.636265" lon="-3.3513083"><ele>744.3333333333333</ele><time>2026-03-28T18:20:59.319Z</time></trkpt><trkpt lat="40.636215" lon="-3.3512217"><ele>743.5</ele><time>2026-03-28T18:21:00.32Z</time></trkpt><trkpt lat="40.6361683" lon="-3.3511317"><ele>742.6666666666666</ele><time>2026-03-28T18:21:01.32Z</time></trkpt><trkpt lat="40.636125" lon="-3.351045"><ele>741.8333333333334</ele><time>2026-03-28T18:21:02.32Z</time></trkpt><trkpt lat="40.6360783" lon="-3.350955"><ele>741.0</ele><time>2026-03-28T18:21:03.319Z</time></trkpt><trkpt lat="40.6360183" lon="-3.3508533"><ele>741.0</ele><time>2026-03-28T18:21:04.32Z</time></trkpt><trkpt lat="40.6359533" lon="-3.3507517"><ele>741.0</ele><time>2026-03-28T18:21:05.32Z</time></trkpt><trkpt lat="40.6358967" lon="-3.3506517"><ele>741.0</ele><time>2026-03-28T18:21:06.32Z</time></trkpt><trkpt lat="40.6358383" lon="-3.3505467"><ele>741.0</ele><time>2026-03-28T18:21:07.319Z</time></trkpt><trkpt lat="40.6357833" lon="-3.350455"><ele>741.0</ele><time>2026-03-28T18:21:08.32Z</time></trkpt><trkpt lat="40.6357333" lon="-3.3503517"><ele>740.1666666666666</ele><time>2026-03-28T18:21:09.32Z</time></trkpt><trkpt lat="40.6356867" lon="-3.3502483"><ele>739.3333333333334</ele><time>2026-03-28T18:21:10.32Z</time></trkpt><trkpt lat="40.6356333" lon="-3.35014"><ele>738.5</ele><time>2026-03-28T18:21:11.32Z</time></trkpt><trkpt lat="40.63559" lon="-3.350045"><ele>737.6666666666667</ele><time>2026-03-28T18:21:12.32Z</time></trkpt><trkpt lat="40.6355483" lon="-3.3499483"><ele>736.8333333333334</ele><time>2026-03-28T18:21:13.32Z</time></trkpt><trkpt lat="40.6355033" lon="-3.3498467"><ele>736.0</ele><time>2026-03-28T18:21:14.32Z</time></trkpt><trkpt lat="40.6354583" lon="-3.349725"><ele>735.75</ele><time>2026-03-28T18:21:15.32Z</time></trkpt><trkpt lat="40.6353967" lon="-3.34957"><ele>735.5</ele><time>2026-03-28T18:21:16.32Z</time></trkpt><trkpt lat="40.6353283" lon="-3.3494"><ele>735.25</ele><time>2026-03-28T18:21:17.32Z</time></trkpt><trkpt lat="40.6352683" lon="-3.3492333"><ele>735.0</ele><time>2026-03-28T18:21:18.32Z</time></trkpt><trkpt lat="40.6352033" lon="-3.3490717"><ele>735.0</ele><time>2026-03-28T18:21:19.32Z</time></trkpt><trkpt lat="40.63513" lon="-3.348905"><ele>735.0</ele><time>2026-03-28T18:21:20.32Z</time></trkpt><trkpt lat="40.6350633" lon="-3.3487467"><ele>735.0</ele><time>2026-03-28T18:21:21.32Z</time></trkpt><trkpt lat="40.6350017" lon="-3.3485917"><ele>735.0</ele><time>2026-03-28T18:21:22.32Z</time></trkpt><trkpt lat="40.63494" lon="-3.348445"><ele>735.25</ele><time>2026-03-28T18:21:23.32Z</time></trkpt><trkpt lat="40.634885" lon="-3.348315"><ele>735.5</ele><time>2026-03-28T18:21:24.32Z</time></trkpt><trkpt lat="40.63483" lon="-3.3481817"><ele>735.75</ele><time>2026-03-28T18:21:25.319Z</time></trkpt><trkpt lat="40.6347767" lon="-3.3480467"><ele>736.0</ele><time>2026-03-28T18:21:26.32Z</time></trkpt><trkpt lat="40.63473" lon="-3.3479067"><ele>735.1999999999999</ele><time>2026-03-28T18:21:27.32Z</time></trkpt><trkpt lat="40.6346783" lon="-3.3477833"><ele>734.4</ele><time>2026-03-28T18:21:28.319Z</time></trkpt><trkpt lat="40.6346317" lon="-3.34766"><ele>733.6</ele><time>2026-03-28T18:21:29.32Z</time></trkpt><trkpt lat="40.634585" lon="-3.347545"><ele>732.8</ele><time>2026-03-28T18:21:30.319Z</time></trkpt><trkpt lat="40.6345367" lon="-3.3474217"><ele>732.0</ele><time>2026-03-28T18:21:31.32Z</time></trkpt><trkpt lat="40.634485" lon="-3.3472817"><ele>731.25</ele><time>2026-03-28T18:21:32.32Z</time></trkpt><trkpt lat="40.6344317" lon="-3.34714"><ele>730.5</ele><time>2026-03-28T18:21:33.319Z</time></trkpt><trkpt lat="40.634385" lon="-3.3470083"><ele>729.75</ele><time>2026-03-28T18:21:34.32Z</time></trkpt><trkpt lat="40.6343317" lon="-3.346865"><ele>729.0</ele><time>2026-03-28T18:21:35.32Z</time></trkpt><trkpt lat="40.6342683" lon="-3.3467067"><ele>729.0</ele><time>2026-03-28T18:21:36.319Z</time></trkpt><trkpt lat="40.6342133" lon="-3.34657"><ele>729.0</ele><time>2026-03-28T18:21:37.32Z</time></trkpt><trkpt lat="40.6341633" lon="-3.3464517"><ele>729.0</ele><time>2026-03-28T18:21:38.319Z</time></trkpt><trkpt lat="40.634115" lon="-3.34634"><ele>729.0</ele><time>2026-03-28T18:21:39.319Z</time></trkpt><trkpt lat="40.6340683" lon="-3.34623"><ele>729.0</ele><time>2026-03-28T18:21:40.32Z</time></trkpt><trkpt lat="40.6340217" lon="-3.3461317"><ele>728.3333333333334</ele><time>2026-03-28T18:21:41.32Z</time></trkpt><trkpt lat="40.63398" lon="-3.346035"><ele>727.6666666666666</ele><time>2026-03-28T18:21:42.32Z</time></trkpt><trkpt lat="40.6339467" lon="-3.34595"><ele>727.0</ele><time>2026-03-28T18:21:43.319Z</time></trkpt><trkpt lat="40.63391" lon="-3.3458667"><ele>726.3333333333333</ele><time>2026-03-28T18:21:44.32Z</time></trkpt><trkpt lat="40.6338767" lon="-3.3457783"><ele>725.6666666666666</ele><time>2026-03-28T18:21:45.32Z</time></trkpt><trkpt lat="40.6338467" lon="-3.34569"><ele>725.0</ele><time>2026-03-28T18:21:46.319Z</time></trkpt><trkpt lat="40.6338167" lon="-3.3456"><ele>724.7142857142858</ele><time>2026-03-28T18:21:47.319Z</time></trkpt><trkpt lat="40.6337867" lon="-3.3455117"><ele>724.4285714285714</ele><time>2026-03-28T18:21:48.32Z</time></trkpt><trkpt lat="40.6337567" lon="-3.345415"><ele>724.1428571428571</ele><time>2026-03-28T18:21:49.32Z</time></trkpt><trkpt lat="40.6337283" lon="-3.3453167"><ele>723.8571428571429</ele><time>2026-03-28T18:21:50.32Z</time></trkpt><trkpt lat="40.6337" lon="-3.3452283"><ele>723.5714285714286</ele><time>2026-03-28T18:21:51.319Z</time></trkpt><trkpt lat="40.6336733" lon="-3.3451433"><ele>723.2857142857143</ele><time>2026-03-28T18:21:52.32Z</time></trkpt><trkpt lat="40.6336467" lon="-3.345055"><ele>723.0</ele><time>2026-03-28T18:21:53.319Z</time></trkpt><trkpt lat="40.6336117" lon="-3.3449633"><ele>722.8333333333334</ele><time>2026-03-28T18:21:54.32Z</time></trkpt><trkpt lat="40.6335833" lon="-3.34487"><ele>722.6666666666666</ele><time>2026-03-28T18:21:55.32Z</time></trkpt><trkpt lat="40.6335567" lon="-3.344775"><ele>722.5</ele><time>2026-03-28T18:21:56.319Z</time></trkpt><trkpt lat="40.6335267" lon="-3.3446667"><ele>722.3333333333333</ele><time>2026-03-28T18:21:57.319Z</time></trkpt><trkpt lat="40.6335" lon="-3.3445383"><ele>722.1666666666666</ele><time>2026-03-28T18:21:58.32Z</time></trkpt><trkpt lat="40.6334767" lon="-3.34442"><ele>722.0</ele><time>2026-03-28T18:21:59.32Z</time></trkpt><trkpt lat="40.6334533" lon="-3.3443133"><ele>721.4000000000001</ele><time>2026-03-28T18:22:00.32Z</time></trkpt><trkpt lat="40.6334367" lon="-3.3442"><ele>720.8000000000001</ele><time>2026-03-28T18:22:01.319Z</time></trkpt><trkpt lat="40.633425" lon="-3.3440817"><ele>720.2</ele><time>2026-03-28T18:22:02.319Z</time></trkpt><trkpt lat="40.6334083" lon="-3.3439633"><ele>719.6</ele><time>2026-03-28T18:22:03.32Z</time></trkpt><trkpt lat="40.6333867" lon="-3.3438383"><ele>719.0</ele><time>2026-03-28T18:22:04.32Z</time></trkpt><trkpt lat="40.633365" lon="-3.3437167"><ele>718.6666666666666</ele><time>2026-03-28T18:22:05.319Z</time></trkpt><trkpt lat="40.6333567" lon="-3.3436083"><ele>718.3333333333333</ele><time>2026-03-28T18:22:06.32Z</time></trkpt><trkpt lat="40.6333417" lon="-3.3435117"><ele>718.0</ele><time>2026-03-28T18:22:07.32Z</time></trkpt><trkpt lat="40.6333233" lon="-3.3434117"><ele>717.6666666666666</ele><time>2026-03-28T18:22:08.32Z</time></trkpt><trkpt lat="40.63331" lon="-3.3433233"><ele>717.3333333333334</ele><time>2026-03-28T18:22:09.319Z</time></trkpt><trkpt lat="40.6332917" lon="-3.34318"><ele>717.0</ele><time>2026-03-28T18:22:11.32Z</time></trkpt><trkpt lat="40.6332683" lon="-3.3430967"><ele>716.8333333333334</ele><time>2026-03-28T18:22:24.32Z</time></trkpt><trkpt lat="40.6332733" lon="-3.3430067"><ele>716.6666666666666</ele><time>2026-03-28T18:22:26.319Z</time></trkpt><trkpt lat="40.6332733" lon="-3.3429117"><ele>716.5</ele><time>2026-03-28T18:22:27.32Z</time></trkpt><trkpt lat="40.6332717" lon="-3.3428"><ele>716.3333333333333</ele><time>2026-03-28T18:22:28.32Z</time></trkpt><trkpt lat="40.6332733" lon="-3.342675"><ele>716.1666666666666</ele><time>2026-03-28T18:22:29.319Z</time></trkpt><trkpt lat="40.6332783" lon="-3.3425417"><ele>716.0</ele><time>2026-03-28T18:22:30.32Z</time></trkpt><trkpt lat="40.63329" lon="-3.3423917"><ele>716.0</ele><time>2026-03-28T18:22:31.319Z</time></trkpt><trkpt lat="40.6333017" lon="-3.3422383"><ele>716.0</ele><time>2026-03-28T18:22:32.32Z</time></trkpt><trkpt lat="40.633315" lon="-3.3420967"><ele>716.0</ele><time>2026-03-28T18:22:33.319Z</time></trkpt><trkpt lat="40.633325" lon="-3.3419817"><ele>716.0</ele><time>2026-03-28T18:22:34.32Z</time></trkpt><trkpt lat="40.6333317" lon="-3.3418683"><ele>716.0</ele><time>2026-03-28T18:22:35.319Z</time></trkpt><trkpt lat="40.6333417" lon="-3.3417483"><ele>715.5999999999999</ele><time>2026-03-28T18:22:36.319Z</time></trkpt><trkpt lat="40.6333517" lon="-3.34164"><ele>715.2</ele><time>2026-03-28T18:22:37.319Z</time></trkpt><trkpt lat="40.6333567" lon="-3.3415183"><ele>714.8</ele><time>2026-03-28T18:22:38.319Z</time></trkpt><trkpt lat="40.6333633" lon="-3.3413983"><ele>714.4000000000001</ele><time>2026-03-28T18:22:39.319Z</time></trkpt><trkpt lat="40.633365" lon="-3.3412833"><ele>714.0</ele><time>2026-03-28T18:22:40.32Z</time></trkpt><trkpt lat="40.6333667" lon="-3.3411467"><ele>712.8000000000001</ele><time>2026-03-28T18:22:41.32Z</time></trkpt><trkpt lat="40.6333667" lon="-3.3410083"><ele>711.6</ele><time>2026-03-28T18:22:42.319Z</time></trkpt><trkpt lat="40.6333567" lon="-3.3408783"><ele>710.4</ele><time>2026-03-28T18:22:43.319Z</time></trkpt><trkpt lat="40.6333383" lon="-3.34075"><ele>709.2</ele><time>2026-03-28T18:22:44.32Z</time></trkpt><trkpt lat="40.633325" lon="-3.3406"><ele>708.0</ele><time>2026-03-28T18:22:45.32Z</time></trkpt><trkpt lat="40.6333033" lon="-3.3404567"><ele>707.5999999999999</ele><time>2026-03-28T18:22:46.32Z</time></trkpt><trkpt lat="40.63328" lon="-3.3403183"><ele>707.1999999999999</ele><time>2026-03-28T18:22:47.319Z</time></trkpt><trkpt lat="40.6332667" lon="-3.3401783"><ele>706.8</ele><time>2026-03-28T18:22:48.32Z</time></trkpt><trkpt lat="40.63325" lon="-3.3400533"><ele>706.4</ele><time>2026-03-28T18:22:49.319Z</time></trkpt><trkpt lat="40.6332317" lon="-3.3399317"><ele>706.0</ele><time>2026-03-28T18:22:50.32Z</time></trkpt><trkpt lat="40.6332117" lon="-3.3398217"><ele>706.0</ele><time>2026-03-28T18:22:51.32Z</time></trkpt><trkpt lat="40.6331933" lon="-3.3397233"><ele>706.0</ele><time>2026-03-28T18:22:52.32Z</time></trkpt><trkpt lat="40.633175" lon="-3.3396"><ele>706.0</ele><time>2026-03-28T18:22:53.32Z</time></trkpt><trkpt lat="40.6331617" lon="-3.339475"><ele>706.0</ele><time>2026-03-28T18:22:54.32Z</time></trkpt><trkpt lat="40.6331417" lon="-3.3393467"><ele>706.0</ele><time>2026-03-28T18:22:55.319Z</time></trkpt><trkpt lat="40.63312" lon="-3.33922"><ele>706.0</ele><time>2026-03-28T18:22:56.319Z</time></trkpt><trkpt lat="40.633105" lon="-3.339115"><ele>706.0</ele><time>2026-03-28T18:22:57.32Z</time></trkpt><trkpt lat="40.6330867" lon="-3.3389783"><ele>706.0</ele><time>2026-03-28T18:22:58.319Z</time></trkpt><trkpt lat="40.6330683" lon="-3.3388517"><ele>706.0</ele><time>2026-03-28T18:22:59.32Z</time></trkpt><trkpt lat="40.63305" lon="-3.338735"><ele>706.0</ele><time>2026-03-28T18:23:00.319Z</time></trkpt><trkpt lat="40.6330333" lon="-3.3386083"><ele>706.0</ele><time>2026-03-28T18:23:01.32Z</time></trkpt><trkpt lat="40.633015" lon="-3.33847"><ele>706.0</ele><time>2026-03-28T18:23:02.319Z</time></trkpt><trkpt lat="40.6329833" lon="-3.338335"><ele>706.0</ele><time>2026-03-28T18:23:03.32Z</time></trkpt><trkpt lat="40.6329467" lon="-3.338225"><ele>706.0</ele><time>2026-03-28T18:23:04.32Z</time></trkpt><trkpt lat="40.6329183" lon="-3.338135"><ele>706.0</ele><time>2026-03-28T18:23:05.319Z</time></trkpt><trkpt lat="40.6328933" lon="-3.338035"><ele>706.0</ele><time>2026-03-28T18:23:06.32Z</time></trkpt><trkpt lat="40.6328633" lon="-3.337945"><ele>706.0</ele><time>2026-03-28T18:23:07.319Z</time></trkpt><trkpt lat="40.6328333" lon="-3.337785"><ele>706.0</ele><time>2026-03-28T18:23:09.32Z</time></trkpt><trkpt lat="40.6328133" lon="-3.3377017"><ele>706.0</ele><time>2026-03-28T18:23:10.32Z</time></trkpt><trkpt lat="40.6327683" lon="-3.3375533"><ele>706.0</ele><time>2026-03-28T18:23:12.32Z</time></trkpt><trkpt lat="40.6327367" lon="-3.3374667"><ele>706.1999999999999</ele><time>2026-03-28T18:23:13.32Z</time></trkpt><trkpt lat="40.6326817" lon="-3.337335"><ele>706.4</ele><time>2026-03-28T18:23:15.32Z</time></trkpt><trkpt lat="40.6326133" lon="-3.3372517"><ele>706.6</ele><time>2026-03-28T18:23:18.32Z</time></trkpt><trkpt lat="40.6325" lon="-3.3371867"><ele>706.8</ele><time>2026-03-28T18:23:20.319Z</time></trkpt><trkpt lat="40.632445" lon="-3.3371233"><ele>707.0</ele><time>2026-03-28T18:23:21.32Z</time></trkpt><trkpt lat="40.632395" lon="-3.337065"><ele>707.4000000000001</ele><time>2026-03-28T18:23:22.32Z</time></trkpt><trkpt lat="40.6323583" lon="-3.3369167"><ele>707.8000000000001</ele><time>2026-03-28T18:23:24.32Z</time></trkpt><trkpt lat="40.63238" lon="-3.3367617"><ele>708.2</ele><time>2026-03-28T18:23:26.32Z</time></trkpt><trkpt lat="40.63247" lon="-3.3366417"><ele>708.6</ele><time>2026-03-28T18:23:28.32Z</time></trkpt><trkpt lat="40.6325333" lon="-3.3366217"><ele>709.0</ele><time>2026-03-28T18:23:29.319Z</time></trkpt><trkpt lat="40.6326033" lon="-3.33663"><ele>709.0</ele><time>2026-03-28T18:23:30.319Z</time></trkpt><trkpt lat="40.6326767" lon="-3.336665"><ele>709.0</ele><time>2026-03-28T18:23:31.32Z</time></trkpt><trkpt lat="40.6327533" lon="-3.3367117"><ele>709.0</ele><time>2026-03-28T18:23:32.32Z</time></trkpt><trkpt lat="40.6328333" lon="-3.33674"><ele>709.0</ele><time>2026-03-28T18:23:33.32Z</time></trkpt><trkpt lat="40.6329133" lon="-3.3367417"><ele>709.0</ele><time>2026-03-28T18:23:34.32Z</time></trkpt><trkpt lat="40.6330033" lon="-3.33673"><ele>709.0</ele><time>2026-03-28T18:23:35.319Z</time></trkpt><trkpt lat="40.6331283" lon="-3.3366983"><ele>709.0</ele><time>2026-03-28T18:23:36.319Z</time></trkpt><trkpt lat="40.6332833" lon="-3.3366667"><ele>709.0</ele><time>2026-03-28T18:23:37.32Z</time></trkpt><trkpt lat="40.6334583" lon="-3.3366517"><ele>709.0</ele><time>2026-03-28T18:23:38.32Z</time></trkpt><trkpt lat="40.63365" lon="-3.336645"><ele>709.0</ele><time>2026-03-28T18:23:39.319Z</time></trkpt><trkpt lat="40.6338567" lon="-3.336655"><ele>709.0</ele><time>2026-03-28T18:23:40.319Z</time></trkpt><trkpt lat="40.63408" lon="-3.3366867"><ele>709.0</ele><time>2026-03-28T18:23:41.319Z</time></trkpt><trkpt lat="40.6343233" lon="-3.3367267"><ele>709.5</ele><time>2026-03-28T18:23:42.32Z</time></trkpt><trkpt lat="40.6345817" lon="-3.3367733"><ele>710.0</ele><time>2026-03-28T18:23:43.32Z</time></trkpt><trkpt lat="40.6348417" lon="-3.3368033"><ele>710.0</ele><time>2026-03-28T18:23:44.32Z</time></trkpt><trkpt lat="40.63512" lon="-3.3368433"><ele>710.0</ele><time>2026-03-28T18:23:45.32Z</time></trkpt><trkpt lat="40.6354183" lon="-3.3368883"><ele>710.5</ele><time>2026-03-28T18:23:46.319Z</time></trkpt><trkpt lat="40.6357333" lon="-3.336955"><ele>711.0</ele><time>2026-03-28T18:23:47.32Z</time></trkpt><trkpt lat="40.63606" lon="-3.3370133"><ele>711.0</ele><time>2026-03-28T18:23:48.32Z</time></trkpt><trkpt lat="40.6363717" lon="-3.337065"><ele>711.0</ele><time>2026-03-28T18:23:49.319Z</time></trkpt><trkpt lat="40.6366733" lon="-3.33712"><ele>711.0</ele><time>2026-03-28T18:23:50.32Z</time></trkpt><trkpt lat="40.6369667" lon="-3.3371683"><ele>711.0</ele><time>2026-03-28T18:23:51.32Z</time></trkpt><trkpt lat="40.6372567" lon="-3.337215"><ele>709.0</ele><time>2026-03-28T18:23:52.32Z</time></trkpt><trkpt lat="40.6375117" lon="-3.3372617"><ele>707.0</ele><time>2026-03-28T18:23:53.32Z</time></trkpt><trkpt lat="40.6377333" lon="-3.3373017"><ele>707.3333333333333</ele><time>2026-03-28T18:23:54.32Z</time></trkpt><trkpt lat="40.6379367" lon="-3.3373333"><ele>707.6666666666666</ele><time>2026-03-28T18:23:55.319Z</time></trkpt><trkpt lat="40.6381267" lon="-3.337365"><ele>708.0</ele><time>2026-03-28T18:23:56.32Z</time></trkpt><trkpt lat="40.638305" lon="-3.3373917"><ele>708.0</ele><time>2026-03-28T18:23:57.32Z</time></trkpt><trkpt lat="40.6384717" lon="-3.3374217"><ele>708.0</ele><time>2026-03-28T18:23:58.32Z</time></trkpt><trkpt lat="40.6386433" lon="-3.3374533"><ele>708.0</ele><time>2026-03-28T18:23:59.32Z</time></trkpt><trkpt lat="40.6388067" lon="-3.3374817"><ele>708.3333333333334</ele><time>2026-03-28T18:24:00.32Z</time></trkpt><trkpt lat="40.638965" lon="-3.3375067"><ele>708.6666666666667</ele><time>2026-03-28T18:24:01.32Z</time></trkpt><trkpt lat="40.63912" lon="-3.3375367"><ele>709.0</ele><time>2026-03-28T18:24:02.32Z</time></trkpt><trkpt lat="40.6392783" lon="-3.3375617"><ele>709.0</ele><time>2026-03-28T18:24:03.32Z</time></trkpt><trkpt lat="40.6394333" lon="-3.337595"><ele>709.0</ele><time>2026-03-28T18:24:04.32Z</time></trkpt><trkpt lat="40.63959" lon="-3.3376133"><ele>709.0</ele><time>2026-03-28T18:24:05.32Z</time></trkpt><trkpt lat="40.6397483" lon="-3.33764"><ele>709.3333333333334</ele><time>2026-03-28T18:24:06.32Z</time></trkpt><trkpt lat="40.6399233" lon="-3.3376583"><ele>709.6666666666666</ele><time>2026-03-28T18:24:07.319Z</time></trkpt><trkpt lat="40.6400817" lon="-3.33769"><ele>710.0</ele><time>2026-03-28T18:24:08.32Z</time></trkpt><trkpt lat="40.6402417" lon="-3.3377183"><ele>710.25</ele><time>2026-03-28T18:24:09.319Z</time></trkpt><trkpt lat="40.64039" lon="-3.3377417"><ele>710.5</ele><time>2026-03-28T18:24:10.32Z</time></trkpt><trkpt lat="40.64052" lon="-3.3377683"><ele>710.75</ele><time>2026-03-28T18:24:11.32Z</time></trkpt><trkpt lat="40.64065" lon="-3.3377917"><ele>711.0</ele><time>2026-03-28T18:24:12.32Z</time></trkpt><trkpt lat="40.640775" lon="-3.3378083"><ele>711.0</ele><time>2026-03-28T18:24:13.32Z</time></trkpt><trkpt lat="40.640875" lon="-3.33783"><ele>711.0</ele><time>2026-03-28T18:24:14.32Z</time></trkpt><trkpt lat="40.6409733" lon="-3.3378383"><ele>711.0</ele><time>2026-03-28T18:24:15.32Z</time></trkpt><trkpt lat="40.641065" lon="-3.337845"><ele>711.0</ele><time>2026-03-28T18:24:16.32Z</time></trkpt><trkpt lat="40.6411383" lon="-3.3378583"><ele>711.0</ele><time>2026-03-28T18:24:17.319Z</time></trkpt><trkpt lat="40.6412733" lon="-3.337865"><ele>711.5</ele><time>2026-03-28T18:24:19.32Z</time></trkpt><trkpt lat="40.6413367" lon="-3.33786"><ele>712.0</ele><time>2026-03-28T18:24:20.32Z</time></trkpt><trkpt lat="40.6414067" lon="-3.3378333"><ele>712.5</ele><time>2026-03-28T18:24:21.32Z</time></trkpt><trkpt lat="40.6414733" lon="-3.3377683"><ele>713.0</ele><time>2026-03-28T18:24:22.319Z</time></trkpt><trkpt lat="40.6415283" lon="-3.337685"><ele>713.5</ele><time>2026-03-28T18:24:23.32Z</time></trkpt><trkpt lat="40.641565" lon="-3.337585"><ele>714.0</ele><time>2026-03-28T18:24:24.32Z</time></trkpt><trkpt lat="40.6415883" lon="-3.3374933"><ele>714.0</ele><time>2026-03-28T18:24:25.32Z</time></trkpt><trkpt lat="40.641605" lon="-3.3373983"><ele>714.0</ele><time>2026-03-28T18:24:26.32Z</time></trkpt><trkpt lat="40.6416233" lon="-3.3372967"><ele>714.0</ele><time>2026-03-28T18:24:27.32Z</time></trkpt><trkpt lat="40.6416467" lon="-3.3371667"><ele>714.0</ele><time>2026-03-28T18:24:28.32Z</time></trkpt><trkpt lat="40.64167" lon="-3.3370283"><ele>714.0</ele><time>2026-03-28T18:24:29.32Z</time></trkpt><trkpt lat="40.6416917" lon="-3.3369133"><ele>715.4000000000001</ele><time>2026-03-28T18:24:30.32Z</time></trkpt><trkpt lat="40.64171" lon="-3.3368233"><ele>716.8</ele><time>2026-03-28T18:24:31.32Z</time></trkpt><trkpt lat="40.6417233" lon="-3.3367317"><ele>718.2</ele><time>2026-03-28T18:24:32.32Z</time></trkpt><trkpt lat="40.6417433" lon="-3.33663"><ele>719.5999999999999</ele><time>2026-03-28T18:24:33.319Z</time></trkpt><trkpt lat="40.641765" lon="-3.3364817"><ele>721.0</ele><time>2026-03-28T18:24:34.32Z</time></trkpt><trkpt lat="40.6417917" lon="-3.336295"><ele>722.0</ele><time>2026-03-28T18:24:35.32Z</time></trkpt><trkpt lat="40.6418133" lon="-3.336115"><ele>723.0</ele><time>2026-03-28T18:24:36.319Z</time></trkpt><trkpt lat="40.6418533" lon="-3.3359233"><ele>724.0</ele><time>2026-03-28T18:24:37.32Z</time></trkpt><trkpt lat="40.6418867" lon="-3.3357467"><ele>725.0</ele><time>2026-03-28T18:24:38.319Z</time></trkpt><trkpt lat="40.6419167" lon="-3.3355833"><ele>724.5</ele><time>2026-03-28T18:24:39.32Z</time></trkpt><trkpt lat="40.64194" lon="-3.3354233"><ele>724.0</ele><time>2026-03-28T18:24:40.319Z</time></trkpt><trkpt lat="40.6419717" lon="-3.33524"><ele>723.5</ele><time>2026-03-28T18:24:41.32Z</time></trkpt><trkpt lat="40.6419967" lon="-3.3350683"><ele>723.0</ele><time>2026-03-28T18:24:42.32Z</time></trkpt><trkpt lat="40.6420233" lon="-3.334885"><ele>724.3333333333334</ele><time>2026-03-28T18:24:43.319Z</time></trkpt><trkpt lat="40.6420583" lon="-3.3346767"><ele>725.6666666666667</ele><time>2026-03-28T18:24:44.32Z</time></trkpt><trkpt lat="40.64209" lon="-3.3344683"><ele>727.0</ele><time>2026-03-28T18:24:45.319Z</time></trkpt><trkpt lat="40.6421267" lon="-3.334285"><ele>727.0</ele><time>2026-03-28T18:24:46.32Z</time></trkpt><trkpt lat="40.6421517" lon="-3.3341267"><ele>727.0</ele><time>2026-03-28T18:24:47.32Z</time></trkpt><trkpt lat="40.642175" lon="-3.3339683"><ele>727.0</ele><time>2026-03-28T18:24:48.32Z</time></trkpt><trkpt lat="40.6422033" lon="-3.3338083"><ele>727.0</ele><time>2026-03-28T18:24:49.32Z</time></trkpt><trkpt lat="40.6422217" lon="-3.3336533"><ele>727.5</ele><time>2026-03-28T18:24:50.32Z</time></trkpt><trkpt lat="40.6422433" lon="-3.3335317"><ele>728.0</ele><time>2026-03-28T18:24:51.32Z</time></trkpt><trkpt lat="40.6422517" lon="-3.3334417"><ele>728.5</ele><time>2026-03-28T18:24:52.319Z</time></trkpt><trkpt lat="40.6422733" lon="-3.33335"><ele>729.0</ele><time>2026-03-28T18:24:55.32Z</time></trkpt><trkpt lat="40.6423483" lon="-3.333345"><ele>729.5</ele><time>2026-03-28T18:24:58.32Z</time></trkpt><trkpt lat="40.6424467" lon="-3.33337"><ele>730.0</ele><time>2026-03-28T18:25:00.32Z</time></trkpt><trkpt lat="40.6425133" lon="-3.3333883"><ele>730.0</ele><time>2026-03-28T18:25:01.32Z</time></trkpt><trkpt lat="40.642615" lon="-3.33342"><ele>730.0</ele><time>2026-03-28T18:25:03.32Z</time></trkpt><trkpt lat="40.6426867" lon="-3.3334467"><ele>730.0</ele><time>2026-03-28T18:25:05.32Z</time></trkpt><trkpt lat="40.64277" lon="-3.3334633"><ele>730.0</ele><time>2026-03-28T18:25:08.32Z</time></trkpt></trkseg></trk></gpx>